<?xml version="1.0" encoding="UTF-8" standalone="no" ?>
<gpx xmlns="http://www.topografix.com/GPX/1/1" xmlns:xsi="http://www.w3.org/2001/XMLSchema-instance" xsi:schemaLocation="http://www.topografix.com/GPX/1/1 http://www.topografix.com/GPX/1/1/gpx.xsd" version="1.1" creator="VisuGPX - https://www.visugpx.com">
  <metadata>
    <name>Velo Mer St Jean de Monts</name>
    <desc><![CDATA[St Jean aaaaaaaaaaaaaaaaaaaaaaaaaaaaaaaaaaaaaaaaaaaaaaaaaaaaaaaaaaaaaaaaaaaaaaaaaaaaaaaaaaaaaaaaaaaaaaaaaaaaaaaaaaaaaaaaaaaaaaaaaaaaaaaaaaaaaaaaaaaaaaaaaaaaaaaaaaaaaaaaa]]></desc>
  </metadata>
  <trk>
    <name><![CDATA[20170727_145408.gpx]]></name>
    <trkseg>
      <trkpt lat="46.78855" lon="-2.0822">
        <ele>64.231186</ele>
        <time>2017-07-27T12:54:09Z</time>
      </trkpt>
      <trkpt lat="46.78855" lon="-2.0822">
        <ele>65.45102</ele>
        <time>2017-07-27T12:54:10Z</time>
      </trkpt>
      <trkpt lat="46.78855" lon="-2.0822">
        <ele>57.4358</ele>
        <time>2017-07-27T12:54:11Z</time>
      </trkpt>
      <trkpt lat="46.78855" lon="-2.0822">
        <ele>58.533104</ele>
        <time>2017-07-27T12:54:22Z</time>
      </trkpt>
      <trkpt lat="46.78855" lon="-2.0822">
        <ele>58.533104</ele>
        <time>2017-07-27T12:54:22Z</time>
      </trkpt>
      <trkpt lat="46.78817" lon="-2.0826">
        <ele>65.23812</ele>
        <time>2017-07-27T12:54:35Z</time>
      </trkpt>
      <trkpt lat="46.7881" lon="-2.0827">
        <ele>66.3822</ele>
        <time>2017-07-27T12:54:39Z</time>
      </trkpt>
      <trkpt lat="46.7881" lon="-2.08271">
        <ele>66.5792</ele>
        <time>2017-07-27T12:54:40Z</time>
      </trkpt>
      <trkpt lat="46.7881" lon="-2.08271">
        <ele>66.72132</ele>
        <time>2017-07-27T12:54:41Z</time>
      </trkpt>
      <trkpt lat="46.7881" lon="-2.0827">
        <ele>66.80725</ele>
        <time>2017-07-27T12:54:42Z</time>
      </trkpt>
      <trkpt lat="46.7881" lon="-2.08271">
        <ele>66.72583</ele>
        <time>2017-07-27T12:54:43Z</time>
      </trkpt>
      <trkpt lat="46.78809" lon="-2.08275">
        <ele>66.47533</ele>
        <time>2017-07-27T12:54:46Z</time>
      </trkpt>
      <trkpt lat="46.78809" lon="-2.08275">
        <ele>66.47533</ele>
        <time>2017-07-27T12:54:46Z</time>
      </trkpt>
      <trkpt lat="46.78791" lon="-2.08254">
        <ele>63.013718</ele>
        <time>2017-07-27T12:54:56Z</time>
      </trkpt>
      <trkpt lat="46.78785" lon="-2.08237">
        <ele>63.20024</ele>
        <time>2017-07-27T12:54:59Z</time>
      </trkpt>
      <trkpt lat="46.78779" lon="-2.08224">
        <ele>61.74272</ele>
        <time>2017-07-27T12:55:01Z</time>
      </trkpt>
      <trkpt lat="46.78775" lon="-2.08211">
        <ele>60.211586</ele>
        <time>2017-07-27T12:55:03Z</time>
      </trkpt>
      <trkpt lat="46.78769" lon="-2.08198">
        <ele>59.16876</ele>
        <time>2017-07-27T12:55:05Z</time>
      </trkpt>
      <trkpt lat="46.78764" lon="-2.08186">
        <ele>58.17856</ele>
        <time>2017-07-27T12:55:07Z</time>
      </trkpt>
      <trkpt lat="46.78759" lon="-2.08174">
        <ele>54.28086</ele>
        <time>2017-07-27T12:55:09Z</time>
      </trkpt>
      <trkpt lat="46.78753" lon="-2.08164">
        <ele>51.703197</ele>
        <time>2017-07-27T12:55:11Z</time>
      </trkpt>
      <trkpt lat="46.78748" lon="-2.08151">
        <ele>50.844</ele>
        <time>2017-07-27T12:55:13Z</time>
      </trkpt>
      <trkpt lat="46.78743" lon="-2.08136">
        <ele>52.935806</ele>
        <time>2017-07-27T12:55:16Z</time>
      </trkpt>
      <trkpt lat="46.78736" lon="-2.0812">
        <ele>58.385395</ele>
        <time>2017-07-27T12:55:19Z</time>
      </trkpt>
      <trkpt lat="46.78729" lon="-2.08107">
        <ele>62.151627</ele>
        <time>2017-07-27T12:55:22Z</time>
      </trkpt>
      <trkpt lat="46.78721" lon="-2.08093">
        <ele>67.71102</ele>
        <time>2017-07-27T12:55:25Z</time>
      </trkpt>
      <trkpt lat="46.78719" lon="-2.08089">
        <ele>67.92343</ele>
        <time>2017-07-27T12:55:26Z</time>
      </trkpt>
      <trkpt lat="46.78717" lon="-2.08085">
        <ele>68.07977</ele>
        <time>2017-07-27T12:55:27Z</time>
      </trkpt>
      <trkpt lat="46.78716" lon="-2.08081">
        <ele>68.24209</ele>
        <time>2017-07-27T12:55:28Z</time>
      </trkpt>
      <trkpt lat="46.78714" lon="-2.08077">
        <ele>68.44818</ele>
        <time>2017-07-27T12:55:29Z</time>
      </trkpt>
      <trkpt lat="46.78713" lon="-2.08073">
        <ele>68.574646</ele>
        <time>2017-07-27T12:55:30Z</time>
      </trkpt>
      <trkpt lat="46.7871" lon="-2.08068">
        <ele>70.442924</ele>
        <time>2017-07-27T12:55:31Z</time>
      </trkpt>
      <trkpt lat="46.78708" lon="-2.08064">
        <ele>70.46484</ele>
        <time>2017-07-27T12:55:32Z</time>
      </trkpt>
      <trkpt lat="46.78706" lon="-2.0806">
        <ele>70.50564</ele>
        <time>2017-07-27T12:55:33Z</time>
      </trkpt>
      <trkpt lat="46.78703" lon="-2.08056">
        <ele>70.47037</ele>
        <time>2017-07-27T12:55:34Z</time>
      </trkpt>
      <trkpt lat="46.787" lon="-2.08043">
        <ele>70.3895</ele>
        <time>2017-07-27T12:55:37Z</time>
      </trkpt>
      <trkpt lat="46.78694" lon="-2.0803">
        <ele>70.13519</ele>
        <time>2017-07-27T12:55:40Z</time>
      </trkpt>
      <trkpt lat="46.7869" lon="-2.08017">
        <ele>69.9335</ele>
        <time>2017-07-27T12:55:43Z</time>
      </trkpt>
      <trkpt lat="46.78683" lon="-2.08004">
        <ele>69.286026</ele>
        <time>2017-07-27T12:55:46Z</time>
      </trkpt>
      <trkpt lat="46.78677" lon="-2.07992">
        <ele>68.937355</ele>
        <time>2017-07-27T12:55:51Z</time>
      </trkpt>
      <trkpt lat="46.78673" lon="-2.07979">
        <ele>68.09368</ele>
        <time>2017-07-27T12:55:55Z</time>
      </trkpt>
      <trkpt lat="46.78666" lon="-2.07969">
        <ele>67.701195</ele>
        <time>2017-07-27T12:55:58Z</time>
      </trkpt>
      <trkpt lat="46.78658" lon="-2.07956">
        <ele>64.220825</ele>
        <time>2017-07-27T12:56:01Z</time>
      </trkpt>
      <trkpt lat="46.78651" lon="-2.0794">
        <ele>61.21761</ele>
        <time>2017-07-27T12:56:04Z</time>
      </trkpt>
      <trkpt lat="46.78645" lon="-2.07927">
        <ele>59.230015</ele>
        <time>2017-07-27T12:56:07Z</time>
      </trkpt>
      <trkpt lat="46.7864" lon="-2.07914">
        <ele>59.0574</ele>
        <time>2017-07-27T12:56:10Z</time>
      </trkpt>
      <trkpt lat="46.78634" lon="-2.07897">
        <ele>56.497643</ele>
        <time>2017-07-27T12:56:13Z</time>
      </trkpt>
      <trkpt lat="46.78627" lon="-2.07883">
        <ele>55.63064</ele>
        <time>2017-07-27T12:56:16Z</time>
      </trkpt>
      <trkpt lat="46.78622" lon="-2.07871">
        <ele>55.374157</ele>
        <time>2017-07-27T12:56:19Z</time>
      </trkpt>
      <trkpt lat="46.78617" lon="-2.07857">
        <ele>55.17544</ele>
        <time>2017-07-27T12:56:22Z</time>
      </trkpt>
      <trkpt lat="46.78611" lon="-2.07845">
        <ele>54.8401</ele>
        <time>2017-07-27T12:56:25Z</time>
      </trkpt>
      <trkpt lat="46.78605" lon="-2.0783">
        <ele>54.817245</ele>
        <time>2017-07-27T12:56:28Z</time>
      </trkpt>
      <trkpt lat="46.78598" lon="-2.0782">
        <ele>52.89283</ele>
        <time>2017-07-27T12:56:30Z</time>
      </trkpt>
      <trkpt lat="46.78591" lon="-2.07808">
        <ele>52.337452</ele>
        <time>2017-07-27T12:56:33Z</time>
      </trkpt>
      <trkpt lat="46.78587" lon="-2.07793">
        <ele>52.302273</ele>
        <time>2017-07-27T12:56:36Z</time>
      </trkpt>
      <trkpt lat="46.7858" lon="-2.07777">
        <ele>52.898388</ele>
        <time>2017-07-27T12:56:39Z</time>
      </trkpt>
      <trkpt lat="46.78574" lon="-2.07761">
        <ele>53.334137</ele>
        <time>2017-07-27T12:56:42Z</time>
      </trkpt>
      <trkpt lat="46.78571" lon="-2.07748">
        <ele>53.69407</ele>
        <time>2017-07-27T12:56:44Z</time>
      </trkpt>
      <trkpt lat="46.78564" lon="-2.07734">
        <ele>52.566124</ele>
        <time>2017-07-27T12:56:47Z</time>
      </trkpt>
      <trkpt lat="46.78563" lon="-2.07717">
        <ele>52.56352</ele>
        <time>2017-07-27T12:56:50Z</time>
      </trkpt>
      <trkpt lat="46.78556" lon="-2.07702">
        <ele>52.67082</ele>
        <time>2017-07-27T12:56:53Z</time>
      </trkpt>
      <trkpt lat="46.7855" lon="-2.07685">
        <ele>52.923325</ele>
        <time>2017-07-27T12:56:56Z</time>
      </trkpt>
      <trkpt lat="46.78544" lon="-2.07673">
        <ele>52.388252</ele>
        <time>2017-07-27T12:56:58Z</time>
      </trkpt>
      <trkpt lat="46.7854" lon="-2.07657">
        <ele>52.088326</ele>
        <time>2017-07-27T12:57:00Z</time>
      </trkpt>
      <trkpt lat="46.78534" lon="-2.07645">
        <ele>54.12052</ele>
        <time>2017-07-27T12:57:02Z</time>
      </trkpt>
      <trkpt lat="46.78526" lon="-2.07631">
        <ele>56.473034</ele>
        <time>2017-07-27T12:57:05Z</time>
      </trkpt>
      <trkpt lat="46.7852" lon="-2.07614">
        <ele>59.99669</ele>
        <time>2017-07-27T12:57:08Z</time>
      </trkpt>
      <trkpt lat="46.78516" lon="-2.07601">
        <ele>61.31275</ele>
        <time>2017-07-27T12:57:10Z</time>
      </trkpt>
      <trkpt lat="46.78511" lon="-2.0759">
        <ele>62.91093</ele>
        <time>2017-07-27T12:57:12Z</time>
      </trkpt>
      <trkpt lat="46.78507" lon="-2.07577">
        <ele>63.086056</ele>
        <time>2017-07-27T12:57:14Z</time>
      </trkpt>
      <trkpt lat="46.78499" lon="-2.07565">
        <ele>62.84586</ele>
        <time>2017-07-27T12:57:17Z</time>
      </trkpt>
      <trkpt lat="46.7849" lon="-2.07552">
        <ele>63.741825</ele>
        <time>2017-07-27T12:57:20Z</time>
      </trkpt>
      <trkpt lat="46.78484" lon="-2.07536">
        <ele>66.68088</ele>
        <time>2017-07-27T12:57:23Z</time>
      </trkpt>
      <trkpt lat="46.78478" lon="-2.07521">
        <ele>67.20074</ele>
        <time>2017-07-27T12:57:26Z</time>
      </trkpt>
      <trkpt lat="46.78472" lon="-2.07506">
        <ele>66.49963</ele>
        <time>2017-07-27T12:57:29Z</time>
      </trkpt>
      <trkpt lat="46.78468" lon="-2.07495">
        <ele>66.56685</ele>
        <time>2017-07-27T12:57:31Z</time>
      </trkpt>
      <trkpt lat="46.78463" lon="-2.07482">
        <ele>66.85128</ele>
        <time>2017-07-27T12:57:34Z</time>
      </trkpt>
      <trkpt lat="46.78456" lon="-2.07471">
        <ele>66.637505</ele>
        <time>2017-07-27T12:57:37Z</time>
      </trkpt>
      <trkpt lat="46.78449" lon="-2.07461">
        <ele>66.18356</ele>
        <time>2017-07-27T12:57:41Z</time>
      </trkpt>
      <trkpt lat="46.78444" lon="-2.0745">
        <ele>65.62552</ele>
        <time>2017-07-27T12:57:44Z</time>
      </trkpt>
      <trkpt lat="46.78437" lon="-2.07436">
        <ele>65.05543</ele>
        <time>2017-07-27T12:57:47Z</time>
      </trkpt>
      <trkpt lat="46.78431" lon="-2.07422">
        <ele>63.40279</ele>
        <time>2017-07-27T12:57:50Z</time>
      </trkpt>
      <trkpt lat="46.78425" lon="-2.0741">
        <ele>63.217854</ele>
        <time>2017-07-27T12:57:52Z</time>
      </trkpt>
      <trkpt lat="46.78421" lon="-2.07396">
        <ele>62.803703</ele>
        <time>2017-07-27T12:57:55Z</time>
      </trkpt>
      <trkpt lat="46.78416" lon="-2.07376">
        <ele>62.2965</ele>
        <time>2017-07-27T12:57:59Z</time>
      </trkpt>
      <trkpt lat="46.78412" lon="-2.07363">
        <ele>62.048164</ele>
        <time>2017-07-27T12:58:03Z</time>
      </trkpt>
      <trkpt lat="46.78407" lon="-2.07348">
        <ele>61.57131</ele>
        <time>2017-07-27T12:58:08Z</time>
      </trkpt>
      <trkpt lat="46.78404" lon="-2.07335">
        <ele>61.2533</ele>
        <time>2017-07-27T12:58:11Z</time>
      </trkpt>
      <trkpt lat="46.78401" lon="-2.07322">
        <ele>60.957893</ele>
        <time>2017-07-27T12:58:14Z</time>
      </trkpt>
      <trkpt lat="46.78392" lon="-2.07312">
        <ele>60.720177</ele>
        <time>2017-07-27T12:58:17Z</time>
      </trkpt>
      <trkpt lat="46.78383" lon="-2.073">
        <ele>60.63861</ele>
        <time>2017-07-27T12:58:20Z</time>
      </trkpt>
      <trkpt lat="46.78377" lon="-2.07287">
        <ele>60.820053</ele>
        <time>2017-07-27T12:58:23Z</time>
      </trkpt>
      <trkpt lat="46.78376" lon="-2.07273">
        <ele>60.898293</ele>
        <time>2017-07-27T12:58:26Z</time>
      </trkpt>
      <trkpt lat="46.78366" lon="-2.07257">
        <ele>61.818306</ele>
        <time>2017-07-27T12:58:30Z</time>
      </trkpt>
      <trkpt lat="46.78357" lon="-2.07246">
        <ele>62.00921</ele>
        <time>2017-07-27T12:58:33Z</time>
      </trkpt>
      <trkpt lat="46.78347" lon="-2.07234">
        <ele>65.83765</ele>
        <time>2017-07-27T12:58:36Z</time>
      </trkpt>
      <trkpt lat="46.7834" lon="-2.07217">
        <ele>70.46876</ele>
        <time>2017-07-27T12:58:39Z</time>
      </trkpt>
      <trkpt lat="46.78333" lon="-2.07203">
        <ele>72.283264</ele>
        <time>2017-07-27T12:58:42Z</time>
      </trkpt>
      <trkpt lat="46.78331" lon="-2.07199">
        <ele>72.52558</ele>
        <time>2017-07-27T12:58:43Z</time>
      </trkpt>
      <trkpt lat="46.7833" lon="-2.07195">
        <ele>72.74021</ele>
        <time>2017-07-27T12:58:44Z</time>
      </trkpt>
      <trkpt lat="46.78328" lon="-2.07191">
        <ele>72.93489</ele>
        <time>2017-07-27T12:58:45Z</time>
      </trkpt>
      <trkpt lat="46.78326" lon="-2.07186">
        <ele>73.12536</ele>
        <time>2017-07-27T12:58:46Z</time>
      </trkpt>
      <trkpt lat="46.78325" lon="-2.07182">
        <ele>73.27281</ele>
        <time>2017-07-27T12:58:47Z</time>
      </trkpt>
      <trkpt lat="46.78323" lon="-2.07179">
        <ele>73.46173</ele>
        <time>2017-07-27T12:58:48Z</time>
      </trkpt>
      <trkpt lat="46.78321" lon="-2.07175">
        <ele>73.621284</ele>
        <time>2017-07-27T12:58:49Z</time>
      </trkpt>
      <trkpt lat="46.78321" lon="-2.07175">
        <ele>73.621284</ele>
        <time>2017-07-27T12:58:49Z</time>
      </trkpt>
      <trkpt lat="46.78303" lon="-2.07141">
        <ele>75.16539</ele>
        <time>2017-07-27T12:58:55Z</time>
      </trkpt>
      <trkpt lat="46.78301" lon="-2.07137">
        <ele>75.199486</ele>
        <time>2017-07-27T12:58:56Z</time>
      </trkpt>
      <trkpt lat="46.78301" lon="-2.07137">
        <ele>75.199486</ele>
        <time>2017-07-27T12:58:56Z</time>
      </trkpt>
      <trkpt lat="46.78294" lon="-2.07123">
        <ele>75.22656</ele>
        <time>2017-07-27T12:58:59Z</time>
      </trkpt>
      <trkpt lat="46.78293" lon="-2.07119">
        <ele>75.17297</ele>
        <time>2017-07-27T12:59:00Z</time>
      </trkpt>
      <trkpt lat="46.78281" lon="-2.07091">
        <ele>74.38302</ele>
        <time>2017-07-27T12:59:10Z</time>
      </trkpt>
      <trkpt lat="46.78275" lon="-2.07081">
        <ele>73.70482</ele>
        <time>2017-07-27T12:59:12Z</time>
      </trkpt>
      <trkpt lat="46.78269" lon="-2.07068">
        <ele>72.970375</ele>
        <time>2017-07-27T12:59:15Z</time>
      </trkpt>
      <trkpt lat="46.78262" lon="-2.07058">
        <ele>72.27427</ele>
        <time>2017-07-27T12:59:19Z</time>
      </trkpt>
      <trkpt lat="46.78253" lon="-2.07041">
        <ele>71.5732</ele>
        <time>2017-07-27T12:59:23Z</time>
      </trkpt>
      <trkpt lat="46.78246" lon="-2.0703">
        <ele>71.22403</ele>
        <time>2017-07-27T12:59:25Z</time>
      </trkpt>
      <trkpt lat="46.78239" lon="-2.07019">
        <ele>71.066414</ele>
        <time>2017-07-27T12:59:28Z</time>
      </trkpt>
      <trkpt lat="46.7823" lon="-2.07005">
        <ele>71.133446</ele>
        <time>2017-07-27T12:59:31Z</time>
      </trkpt>
      <trkpt lat="46.78223" lon="-2.06992">
        <ele>71.448784</ele>
        <time>2017-07-27T12:59:34Z</time>
      </trkpt>
      <trkpt lat="46.78214" lon="-2.06979">
        <ele>76.20852</ele>
        <time>2017-07-27T12:59:37Z</time>
      </trkpt>
      <trkpt lat="46.78212" lon="-2.06975">
        <ele>77.190346</ele>
        <time>2017-07-27T12:59:38Z</time>
      </trkpt>
      <trkpt lat="46.78209" lon="-2.0697">
        <ele>77.25368</ele>
        <time>2017-07-27T12:59:39Z</time>
      </trkpt>
      <trkpt lat="46.78207" lon="-2.06967">
        <ele>77.30542</ele>
        <time>2017-07-27T12:59:40Z</time>
      </trkpt>
      <trkpt lat="46.78205" lon="-2.06963">
        <ele>77.38955</ele>
        <time>2017-07-27T12:59:41Z</time>
      </trkpt>
      <trkpt lat="46.78202" lon="-2.06959">
        <ele>77.46938</ele>
        <time>2017-07-27T12:59:42Z</time>
      </trkpt>
      <trkpt lat="46.782" lon="-2.06955">
        <ele>77.61288</ele>
        <time>2017-07-27T12:59:43Z</time>
      </trkpt>
      <trkpt lat="46.78198" lon="-2.06951">
        <ele>77.762726</ele>
        <time>2017-07-27T12:59:44Z</time>
      </trkpt>
      <trkpt lat="46.78196" lon="-2.06947">
        <ele>77.9659</ele>
        <time>2017-07-27T12:59:45Z</time>
      </trkpt>
      <trkpt lat="46.78194" lon="-2.06943">
        <ele>78.22824</ele>
        <time>2017-07-27T12:59:46Z</time>
      </trkpt>
      <trkpt lat="46.78191" lon="-2.06939">
        <ele>78.47863</ele>
        <time>2017-07-27T12:59:47Z</time>
      </trkpt>
      <trkpt lat="46.78189" lon="-2.06935">
        <ele>81.58385</ele>
        <time>2017-07-27T12:59:48Z</time>
      </trkpt>
      <trkpt lat="46.78187" lon="-2.06931">
        <ele>83.67807</ele>
        <time>2017-07-27T12:59:49Z</time>
      </trkpt>
      <trkpt lat="46.78185" lon="-2.06926">
        <ele>83.85938</ele>
        <time>2017-07-27T12:59:50Z</time>
      </trkpt>
      <trkpt lat="46.78183" lon="-2.06922">
        <ele>84.10276</ele>
        <time>2017-07-27T12:59:51Z</time>
      </trkpt>
      <trkpt lat="46.78181" lon="-2.06919">
        <ele>84.33022</ele>
        <time>2017-07-27T12:59:52Z</time>
      </trkpt>
      <trkpt lat="46.78178" lon="-2.06914">
        <ele>84.56737</ele>
        <time>2017-07-27T12:59:53Z</time>
      </trkpt>
      <trkpt lat="46.78175" lon="-2.06909">
        <ele>84.82609</ele>
        <time>2017-07-27T12:59:54Z</time>
      </trkpt>
      <trkpt lat="46.78175" lon="-2.06909">
        <ele>84.82609</ele>
        <time>2017-07-27T12:59:54Z</time>
      </trkpt>
      <trkpt lat="46.78167" lon="-2.06894">
        <ele>85.29872</ele>
        <time>2017-07-27T12:59:57Z</time>
      </trkpt>
      <trkpt lat="46.78165" lon="-2.06889">
        <ele>85.42629</ele>
        <time>2017-07-27T12:59:58Z</time>
      </trkpt>
      <trkpt lat="46.78163" lon="-2.06886">
        <ele>85.55712</ele>
        <time>2017-07-27T12:59:59Z</time>
      </trkpt>
      <trkpt lat="46.78161" lon="-2.06883">
        <ele>85.66625</ele>
        <time>2017-07-27T13:00:00Z</time>
      </trkpt>
      <trkpt lat="46.78159" lon="-2.06879">
        <ele>85.78626</ele>
        <time>2017-07-27T13:00:01Z</time>
      </trkpt>
      <trkpt lat="46.78158" lon="-2.06875">
        <ele>85.936806</ele>
        <time>2017-07-27T13:00:02Z</time>
      </trkpt>
      <trkpt lat="46.78156" lon="-2.06871">
        <ele>86.121704</ele>
        <time>2017-07-27T13:00:03Z</time>
      </trkpt>
      <trkpt lat="46.78156" lon="-2.06865">
        <ele>86.266914</ele>
        <time>2017-07-27T13:00:04Z</time>
      </trkpt>
      <trkpt lat="46.78155" lon="-2.06858">
        <ele>86.292755</ele>
        <time>2017-07-27T13:00:05Z</time>
      </trkpt>
      <trkpt lat="46.78154" lon="-2.0685">
        <ele>86.20166</ele>
        <time>2017-07-27T13:00:06Z</time>
      </trkpt>
      <trkpt lat="46.78151" lon="-2.06832">
        <ele>85.89673</ele>
        <time>2017-07-27T13:00:09Z</time>
      </trkpt>
      <trkpt lat="46.78146" lon="-2.06821">
        <ele>84.94835</ele>
        <time>2017-07-27T13:00:11Z</time>
      </trkpt>
      <trkpt lat="46.78139" lon="-2.06808">
        <ele>84.35808</ele>
        <time>2017-07-27T13:00:14Z</time>
      </trkpt>
      <trkpt lat="46.78134" lon="-2.06793">
        <ele>84.19352</ele>
        <time>2017-07-27T13:00:17Z</time>
      </trkpt>
      <trkpt lat="46.78127" lon="-2.06784">
        <ele>84.0639</ele>
        <time>2017-07-27T13:00:20Z</time>
      </trkpt>
      <trkpt lat="46.78118" lon="-2.06775">
        <ele>83.47282</ele>
        <time>2017-07-27T13:00:23Z</time>
      </trkpt>
      <trkpt lat="46.78111" lon="-2.06764">
        <ele>83.49815</ele>
        <time>2017-07-27T13:00:26Z</time>
      </trkpt>
      <trkpt lat="46.78105" lon="-2.06753">
        <ele>84.15512</ele>
        <time>2017-07-27T13:00:29Z</time>
      </trkpt>
      <trkpt lat="46.78097" lon="-2.06739">
        <ele>85.38474</ele>
        <time>2017-07-27T13:00:32Z</time>
      </trkpt>
      <trkpt lat="46.78088" lon="-2.06728">
        <ele>86.9172</ele>
        <time>2017-07-27T13:00:35Z</time>
      </trkpt>
      <trkpt lat="46.78084" lon="-2.06724">
        <ele>86.87022</ele>
        <time>2017-07-27T13:00:36Z</time>
      </trkpt>
      <trkpt lat="46.78073" lon="-2.0672">
        <ele>86.306335</ele>
        <time>2017-07-27T13:00:39Z</time>
      </trkpt>
      <trkpt lat="46.78063" lon="-2.06713">
        <ele>85.19207</ele>
        <time>2017-07-27T13:00:42Z</time>
      </trkpt>
      <trkpt lat="46.78056" lon="-2.06701">
        <ele>84.01326</ele>
        <time>2017-07-27T13:00:45Z</time>
      </trkpt>
      <trkpt lat="46.78048" lon="-2.0669">
        <ele>78.013695</ele>
        <time>2017-07-27T13:00:48Z</time>
      </trkpt>
      <trkpt lat="46.7804" lon="-2.0668">
        <ele>76.65991</ele>
        <time>2017-07-27T13:00:51Z</time>
      </trkpt>
      <trkpt lat="46.78033" lon="-2.06667">
        <ele>77.07079</ele>
        <time>2017-07-27T13:00:54Z</time>
      </trkpt>
      <trkpt lat="46.78027" lon="-2.06652">
        <ele>77.16306</ele>
        <time>2017-07-27T13:00:57Z</time>
      </trkpt>
      <trkpt lat="46.78023" lon="-2.06635">
        <ele>76.93351</ele>
        <time>2017-07-27T13:01:00Z</time>
      </trkpt>
      <trkpt lat="46.78021" lon="-2.06617">
        <ele>76.01922</ele>
        <time>2017-07-27T13:01:03Z</time>
      </trkpt>
      <trkpt lat="46.78014" lon="-2.06604">
        <ele>75.57682</ele>
        <time>2017-07-27T13:01:06Z</time>
      </trkpt>
      <trkpt lat="46.78004" lon="-2.06597">
        <ele>73.78545</ele>
        <time>2017-07-27T13:01:10Z</time>
      </trkpt>
      <trkpt lat="46.77987" lon="-2.06584">
        <ele>66.83238</ele>
        <time>2017-07-27T13:01:15Z</time>
      </trkpt>
      <trkpt lat="46.77977" lon="-2.06566">
        <ele>64.60275</ele>
        <time>2017-07-27T13:01:19Z</time>
      </trkpt>
      <trkpt lat="46.77968" lon="-2.06551">
        <ele>64.63917</ele>
        <time>2017-07-27T13:01:23Z</time>
      </trkpt>
      <trkpt lat="46.7796" lon="-2.06538">
        <ele>63.238705</ele>
        <time>2017-07-27T13:01:25Z</time>
      </trkpt>
      <trkpt lat="46.77952" lon="-2.06524">
        <ele>62.805946</ele>
        <time>2017-07-27T13:01:27Z</time>
      </trkpt>
      <trkpt lat="46.77942" lon="-2.06504">
        <ele>64.43447</ele>
        <time>2017-07-27T13:01:31Z</time>
      </trkpt>
      <trkpt lat="46.77939" lon="-2.06491">
        <ele>64.75482</ele>
        <time>2017-07-27T13:01:33Z</time>
      </trkpt>
      <trkpt lat="46.77939" lon="-2.06478">
        <ele>64.103455</ele>
        <time>2017-07-27T13:01:35Z</time>
      </trkpt>
      <trkpt lat="46.77939" lon="-2.06459">
        <ele>62.166374</ele>
        <time>2017-07-27T13:01:38Z</time>
      </trkpt>
      <trkpt lat="46.77939" lon="-2.06441">
        <ele>62.312927</ele>
        <time>2017-07-27T13:01:41Z</time>
      </trkpt>
      <trkpt lat="46.77939" lon="-2.06423">
        <ele>62.522884</ele>
        <time>2017-07-27T13:01:44Z</time>
      </trkpt>
      <trkpt lat="46.77935" lon="-2.06409">
        <ele>62.895805</ele>
        <time>2017-07-27T13:01:50Z</time>
      </trkpt>
      <trkpt lat="46.77927" lon="-2.06391">
        <ele>63.447697</ele>
        <time>2017-07-27T13:01:51Z</time>
      </trkpt>
      <trkpt lat="46.77918" lon="-2.0638">
        <ele>64.99302</ele>
        <time>2017-07-27T13:01:55Z</time>
      </trkpt>
      <trkpt lat="46.77908" lon="-2.06369">
        <ele>65.422775</ele>
        <time>2017-07-27T13:01:58Z</time>
      </trkpt>
      <trkpt lat="46.77897" lon="-2.06362">
        <ele>65.00945</ele>
        <time>2017-07-27T13:02:01Z</time>
      </trkpt>
      <trkpt lat="46.77885" lon="-2.06356">
        <ele>64.21668</ele>
        <time>2017-07-27T13:02:04Z</time>
      </trkpt>
      <trkpt lat="46.77872" lon="-2.06354">
        <ele>63.432686</ele>
        <time>2017-07-27T13:02:07Z</time>
      </trkpt>
      <trkpt lat="46.77858" lon="-2.06354">
        <ele>62.609608</ele>
        <time>2017-07-27T13:02:10Z</time>
      </trkpt>
      <trkpt lat="46.77848" lon="-2.06346">
        <ele>61.83766</ele>
        <time>2017-07-27T13:02:13Z</time>
      </trkpt>
      <trkpt lat="46.7784" lon="-2.06333">
        <ele>61.326996</ele>
        <time>2017-07-27T13:02:16Z</time>
      </trkpt>
      <trkpt lat="46.77831" lon="-2.0632">
        <ele>61.551903</ele>
        <time>2017-07-27T13:02:19Z</time>
      </trkpt>
      <trkpt lat="46.77824" lon="-2.06305">
        <ele>60.675484</ele>
        <time>2017-07-27T13:02:22Z</time>
      </trkpt>
      <trkpt lat="46.77816" lon="-2.06291">
        <ele>60.47731</ele>
        <time>2017-07-27T13:02:25Z</time>
      </trkpt>
      <trkpt lat="46.77808" lon="-2.06277">
        <ele>60.05423</ele>
        <time>2017-07-27T13:02:28Z</time>
      </trkpt>
      <trkpt lat="46.77799" lon="-2.06263">
        <ele>61.29161</ele>
        <time>2017-07-27T13:02:31Z</time>
      </trkpt>
      <trkpt lat="46.7779" lon="-2.06249">
        <ele>63.253887</ele>
        <time>2017-07-27T13:02:34Z</time>
      </trkpt>
      <trkpt lat="46.77784" lon="-2.06238">
        <ele>63.004433</ele>
        <time>2017-07-27T13:02:36Z</time>
      </trkpt>
      <trkpt lat="46.77778" lon="-2.06227">
        <ele>63.05842</ele>
        <time>2017-07-27T13:02:38Z</time>
      </trkpt>
      <trkpt lat="46.77772" lon="-2.06215">
        <ele>62.674335</ele>
        <time>2017-07-27T13:02:40Z</time>
      </trkpt>
      <trkpt lat="46.77763" lon="-2.06202">
        <ele>62.11839</ele>
        <time>2017-07-27T13:02:43Z</time>
      </trkpt>
      <trkpt lat="46.77755" lon="-2.06187">
        <ele>62.380207</ele>
        <time>2017-07-27T13:02:46Z</time>
      </trkpt>
      <trkpt lat="46.77748" lon="-2.06176">
        <ele>63.459614</ele>
        <time>2017-07-27T13:02:48Z</time>
      </trkpt>
      <trkpt lat="46.7774" lon="-2.06163">
        <ele>64.26152</ele>
        <time>2017-07-27T13:02:51Z</time>
      </trkpt>
      <trkpt lat="46.77734" lon="-2.06151">
        <ele>63.96501</ele>
        <time>2017-07-27T13:02:53Z</time>
      </trkpt>
      <trkpt lat="46.77728" lon="-2.0614">
        <ele>63.36254</ele>
        <time>2017-07-27T13:02:55Z</time>
      </trkpt>
      <trkpt lat="46.77722" lon="-2.0613">
        <ele>62.30669</ele>
        <time>2017-07-27T13:02:57Z</time>
      </trkpt>
      <trkpt lat="46.77716" lon="-2.06118">
        <ele>62.28059</ele>
        <time>2017-07-27T13:02:59Z</time>
      </trkpt>
      <trkpt lat="46.77709" lon="-2.06106">
        <ele>61.448715</ele>
        <time>2017-07-27T13:03:01Z</time>
      </trkpt>
      <trkpt lat="46.77699" lon="-2.06092">
        <ele>60.817497</ele>
        <time>2017-07-27T13:03:04Z</time>
      </trkpt>
      <trkpt lat="46.77693" lon="-2.06082">
        <ele>61.09364</ele>
        <time>2017-07-27T13:03:06Z</time>
      </trkpt>
      <trkpt lat="46.77687" lon="-2.06072">
        <ele>60.833218</ele>
        <time>2017-07-27T13:03:08Z</time>
      </trkpt>
      <trkpt lat="46.7768" lon="-2.06061">
        <ele>60.526127</ele>
        <time>2017-07-27T13:03:10Z</time>
      </trkpt>
      <trkpt lat="46.77673" lon="-2.0605">
        <ele>61.009327</ele>
        <time>2017-07-27T13:03:12Z</time>
      </trkpt>
      <trkpt lat="46.77666" lon="-2.06039">
        <ele>60.854046</ele>
        <time>2017-07-27T13:03:14Z</time>
      </trkpt>
      <trkpt lat="46.77657" lon="-2.06026">
        <ele>61.484905</ele>
        <time>2017-07-27T13:03:17Z</time>
      </trkpt>
      <trkpt lat="46.77647" lon="-2.06011">
        <ele>60.781113</ele>
        <time>2017-07-27T13:03:20Z</time>
      </trkpt>
      <trkpt lat="46.77641" lon="-2.06">
        <ele>59.781315</ele>
        <time>2017-07-27T13:03:22Z</time>
      </trkpt>
      <trkpt lat="46.77634" lon="-2.0599">
        <ele>58.58653</ele>
        <time>2017-07-27T13:03:24Z</time>
      </trkpt>
      <trkpt lat="46.77626" lon="-2.05979">
        <ele>57.716373</ele>
        <time>2017-07-27T13:03:26Z</time>
      </trkpt>
      <trkpt lat="46.77619" lon="-2.05967">
        <ele>58.173504</ele>
        <time>2017-07-27T13:03:29Z</time>
      </trkpt>
      <trkpt lat="46.77611" lon="-2.05955">
        <ele>57.32099</ele>
        <time>2017-07-27T13:03:31Z</time>
      </trkpt>
      <trkpt lat="46.77605" lon="-2.05945">
        <ele>57.988987</ele>
        <time>2017-07-27T13:03:33Z</time>
      </trkpt>
      <trkpt lat="46.77596" lon="-2.0593">
        <ele>58.262867</ele>
        <time>2017-07-27T13:03:36Z</time>
      </trkpt>
      <trkpt lat="46.77589" lon="-2.0592">
        <ele>58.141167</ele>
        <time>2017-07-27T13:03:38Z</time>
      </trkpt>
      <trkpt lat="46.77582" lon="-2.05911">
        <ele>57.888165</ele>
        <time>2017-07-27T13:03:40Z</time>
      </trkpt>
      <trkpt lat="46.77573" lon="-2.05898">
        <ele>59.620308</ele>
        <time>2017-07-27T13:03:43Z</time>
      </trkpt>
      <trkpt lat="46.77564" lon="-2.05883">
        <ele>60.384724</ele>
        <time>2017-07-27T13:03:46Z</time>
      </trkpt>
      <trkpt lat="46.77556" lon="-2.05873">
        <ele>61.01915</ele>
        <time>2017-07-27T13:03:48Z</time>
      </trkpt>
      <trkpt lat="46.7755" lon="-2.05863">
        <ele>61.19991</ele>
        <time>2017-07-27T13:03:50Z</time>
      </trkpt>
      <trkpt lat="46.77543" lon="-2.05853">
        <ele>61.7774</ele>
        <time>2017-07-27T13:03:52Z</time>
      </trkpt>
      <trkpt lat="46.77536" lon="-2.05841">
        <ele>61.173725</ele>
        <time>2017-07-27T13:03:54Z</time>
      </trkpt>
      <trkpt lat="46.77527" lon="-2.05828">
        <ele>61.048267</ele>
        <time>2017-07-27T13:03:57Z</time>
      </trkpt>
      <trkpt lat="46.7752" lon="-2.05817">
        <ele>59.135715</ele>
        <time>2017-07-27T13:03:59Z</time>
      </trkpt>
      <trkpt lat="46.77513" lon="-2.05808">
        <ele>57.338398</ele>
        <time>2017-07-27T13:04:01Z</time>
      </trkpt>
      <trkpt lat="46.77506" lon="-2.058">
        <ele>57.595596</ele>
        <time>2017-07-27T13:04:03Z</time>
      </trkpt>
      <trkpt lat="46.77497" lon="-2.05788">
        <ele>58.507732</ele>
        <time>2017-07-27T13:04:06Z</time>
      </trkpt>
      <trkpt lat="46.77488" lon="-2.05777">
        <ele>60.22552</ele>
        <time>2017-07-27T13:04:09Z</time>
      </trkpt>
      <trkpt lat="46.77478" lon="-2.05764">
        <ele>61.41054</ele>
        <time>2017-07-27T13:04:12Z</time>
      </trkpt>
      <trkpt lat="46.77469" lon="-2.05748">
        <ele>60.768837</ele>
        <time>2017-07-27T13:04:15Z</time>
      </trkpt>
      <trkpt lat="46.77462" lon="-2.05739">
        <ele>60.60758</ele>
        <time>2017-07-27T13:04:17Z</time>
      </trkpt>
      <trkpt lat="46.77455" lon="-2.05732">
        <ele>61.02027</ele>
        <time>2017-07-27T13:04:19Z</time>
      </trkpt>
      <trkpt lat="46.77448" lon="-2.05722">
        <ele>60.7</ele>
        <time>2017-07-27T13:04:21Z</time>
      </trkpt>
      <trkpt lat="46.77441" lon="-2.05712">
        <ele>60.926456</ele>
        <time>2017-07-27T13:04:23Z</time>
      </trkpt>
      <trkpt lat="46.77434" lon="-2.05703">
        <ele>60.191654</ele>
        <time>2017-07-27T13:04:25Z</time>
      </trkpt>
      <trkpt lat="46.77425" lon="-2.0569">
        <ele>59.918777</ele>
        <time>2017-07-27T13:04:28Z</time>
      </trkpt>
      <trkpt lat="46.77414" lon="-2.0568">
        <ele>58.93404</ele>
        <time>2017-07-27T13:04:31Z</time>
      </trkpt>
      <trkpt lat="46.77406" lon="-2.05673">
        <ele>58.445827</ele>
        <time>2017-07-27T13:04:33Z</time>
      </trkpt>
      <trkpt lat="46.77395" lon="-2.0566">
        <ele>58.395226</ele>
        <time>2017-07-27T13:04:37Z</time>
      </trkpt>
      <trkpt lat="46.77384" lon="-2.05645">
        <ele>57.287933</ele>
        <time>2017-07-27T13:04:40Z</time>
      </trkpt>
      <trkpt lat="46.77372" lon="-2.05633">
        <ele>57.56245</ele>
        <time>2017-07-27T13:04:44Z</time>
      </trkpt>
      <trkpt lat="46.77353" lon="-2.05604">
        <ele>59.499435</ele>
        <time>2017-07-27T13:04:48Z</time>
      </trkpt>
      <trkpt lat="46.77345" lon="-2.0559">
        <ele>59.887257</ele>
        <time>2017-07-27T13:04:52Z</time>
      </trkpt>
      <trkpt lat="46.77339" lon="-2.05577">
        <ele>59.759785</ele>
        <time>2017-07-27T13:04:54Z</time>
      </trkpt>
      <trkpt lat="46.77334" lon="-2.05566">
        <ele>59.649036</ele>
        <time>2017-07-27T13:04:57Z</time>
      </trkpt>
      <trkpt lat="46.77327" lon="-2.05555">
        <ele>59.1896</ele>
        <time>2017-07-27T13:05:00Z</time>
      </trkpt>
      <trkpt lat="46.77319" lon="-2.05542">
        <ele>60.2185</ele>
        <time>2017-07-27T13:05:03Z</time>
      </trkpt>
      <trkpt lat="46.77312" lon="-2.05533">
        <ele>59.592247</ele>
        <time>2017-07-27T13:05:05Z</time>
      </trkpt>
      <trkpt lat="46.77305" lon="-2.05523">
        <ele>58.58133</ele>
        <time>2017-07-27T13:05:07Z</time>
      </trkpt>
      <trkpt lat="46.77295" lon="-2.0551">
        <ele>59.32104</ele>
        <time>2017-07-27T13:05:10Z</time>
      </trkpt>
      <trkpt lat="46.77288" lon="-2.05501">
        <ele>58.443256</ele>
        <time>2017-07-27T13:05:12Z</time>
      </trkpt>
      <trkpt lat="46.77281" lon="-2.0549">
        <ele>58.162674</ele>
        <time>2017-07-27T13:05:14Z</time>
      </trkpt>
      <trkpt lat="46.77269" lon="-2.05478">
        <ele>58.461525</ele>
        <time>2017-07-27T13:05:17Z</time>
      </trkpt>
      <trkpt lat="46.77258" lon="-2.05466">
        <ele>58.06839</ele>
        <time>2017-07-27T13:05:20Z</time>
      </trkpt>
      <trkpt lat="46.77248" lon="-2.05455">
        <ele>57.92641</ele>
        <time>2017-07-27T13:05:23Z</time>
      </trkpt>
      <trkpt lat="46.77241" lon="-2.05445">
        <ele>58.465195</ele>
        <time>2017-07-27T13:05:25Z</time>
      </trkpt>
      <trkpt lat="46.7723" lon="-2.05432">
        <ele>57.94763</ele>
        <time>2017-07-27T13:05:28Z</time>
      </trkpt>
      <trkpt lat="46.77221" lon="-2.0542">
        <ele>56.549465</ele>
        <time>2017-07-27T13:05:31Z</time>
      </trkpt>
      <trkpt lat="46.77211" lon="-2.05405">
        <ele>56.889874</ele>
        <time>2017-07-27T13:05:34Z</time>
      </trkpt>
      <trkpt lat="46.77205" lon="-2.05394">
        <ele>57.91798</ele>
        <time>2017-07-27T13:05:36Z</time>
      </trkpt>
      <trkpt lat="46.77198" lon="-2.05384">
        <ele>58.332233</ele>
        <time>2017-07-27T13:05:38Z</time>
      </trkpt>
      <trkpt lat="46.77191" lon="-2.05374">
        <ele>58.30763</ele>
        <time>2017-07-27T13:05:40Z</time>
      </trkpt>
      <trkpt lat="46.77182" lon="-2.05361">
        <ele>59.950077</ele>
        <time>2017-07-27T13:05:43Z</time>
      </trkpt>
      <trkpt lat="46.77171" lon="-2.0535">
        <ele>60.874466</ele>
        <time>2017-07-27T13:05:46Z</time>
      </trkpt>
      <trkpt lat="46.77162" lon="-2.05341">
        <ele>60.76088</ele>
        <time>2017-07-27T13:05:48Z</time>
      </trkpt>
      <trkpt lat="46.77153" lon="-2.05329">
        <ele>61.392273</ele>
        <time>2017-07-27T13:05:51Z</time>
      </trkpt>
      <trkpt lat="46.77142" lon="-2.05317">
        <ele>60.661438</ele>
        <time>2017-07-27T13:05:54Z</time>
      </trkpt>
      <trkpt lat="46.77134" lon="-2.05305">
        <ele>60.371452</ele>
        <time>2017-07-27T13:05:57Z</time>
      </trkpt>
      <trkpt lat="46.77124" lon="-2.05292">
        <ele>59.459354</ele>
        <time>2017-07-27T13:06:00Z</time>
      </trkpt>
      <trkpt lat="46.77115" lon="-2.05281">
        <ele>59.06218</ele>
        <time>2017-07-27T13:06:03Z</time>
      </trkpt>
      <trkpt lat="46.77109" lon="-2.05272">
        <ele>59.177177</ele>
        <time>2017-07-27T13:06:06Z</time>
      </trkpt>
      <trkpt lat="46.77105" lon="-2.0527">
        <ele>59.633533</ele>
        <time>2017-07-27T13:06:16Z</time>
      </trkpt>
      <trkpt lat="46.77105" lon="-2.0527">
        <ele>59.633533</ele>
        <time>2017-07-27T13:06:16Z</time>
      </trkpt>
      <trkpt lat="46.77091" lon="-2.05241">
        <ele>56.82666</ele>
        <time>2017-07-27T13:13:54Z</time>
      </trkpt>
      <trkpt lat="46.77082" lon="-2.05225">
        <ele>57.009857</ele>
        <time>2017-07-27T13:13:57Z</time>
      </trkpt>
      <trkpt lat="46.77076" lon="-2.05208">
        <ele>57.413326</ele>
        <time>2017-07-27T13:14:01Z</time>
      </trkpt>
      <trkpt lat="46.77072" lon="-2.05193">
        <ele>57.569225</ele>
        <time>2017-07-27T13:14:04Z</time>
      </trkpt>
      <trkpt lat="46.77068" lon="-2.05179">
        <ele>57.56587</ele>
        <time>2017-07-27T13:14:08Z</time>
      </trkpt>
      <trkpt lat="46.77066" lon="-2.05166">
        <ele>57.327015</ele>
        <time>2017-07-27T13:14:11Z</time>
      </trkpt>
      <trkpt lat="46.77063" lon="-2.05154">
        <ele>57.118572</ele>
        <time>2017-07-27T13:14:14Z</time>
      </trkpt>
      <trkpt lat="46.77067" lon="-2.05139">
        <ele>57.01537</ele>
        <time>2017-07-27T13:14:17Z</time>
      </trkpt>
      <trkpt lat="46.77072" lon="-2.05127">
        <ele>56.807545</ele>
        <time>2017-07-27T13:14:19Z</time>
      </trkpt>
      <trkpt lat="46.77079" lon="-2.05113">
        <ele>55.92132</ele>
        <time>2017-07-27T13:14:22Z</time>
      </trkpt>
      <trkpt lat="46.77087" lon="-2.05094">
        <ele>55.681446</ele>
        <time>2017-07-27T13:14:25Z</time>
      </trkpt>
      <trkpt lat="46.77094" lon="-2.05079">
        <ele>53.395916</ele>
        <time>2017-07-27T13:14:28Z</time>
      </trkpt>
      <trkpt lat="46.771" lon="-2.05063">
        <ele>50.334442</ele>
        <time>2017-07-27T13:14:31Z</time>
      </trkpt>
      <trkpt lat="46.77106" lon="-2.05052">
        <ele>47.59969</ele>
        <time>2017-07-27T13:14:33Z</time>
      </trkpt>
      <trkpt lat="46.77114" lon="-2.05036">
        <ele>48.010338</ele>
        <time>2017-07-27T13:14:36Z</time>
      </trkpt>
      <trkpt lat="46.7712" lon="-2.05021">
        <ele>50.23221</ele>
        <time>2017-07-27T13:14:39Z</time>
      </trkpt>
      <trkpt lat="46.77124" lon="-2.05005">
        <ele>52.59231</ele>
        <time>2017-07-27T13:14:42Z</time>
      </trkpt>
      <trkpt lat="46.77128" lon="-2.0499">
        <ele>54.343964</ele>
        <time>2017-07-27T13:14:44Z</time>
      </trkpt>
      <trkpt lat="46.77135" lon="-2.04973">
        <ele>55.18692</ele>
        <time>2017-07-27T13:14:47Z</time>
      </trkpt>
      <trkpt lat="46.7714" lon="-2.04962">
        <ele>55.21635</ele>
        <time>2017-07-27T13:14:49Z</time>
      </trkpt>
      <trkpt lat="46.77144" lon="-2.0495">
        <ele>55.494606</ele>
        <time>2017-07-27T13:14:51Z</time>
      </trkpt>
      <trkpt lat="46.77151" lon="-2.04935">
        <ele>53.443752</ele>
        <time>2017-07-27T13:14:54Z</time>
      </trkpt>
      <trkpt lat="46.77155" lon="-2.04919">
        <ele>51.548462</ele>
        <time>2017-07-27T13:14:57Z</time>
      </trkpt>
      <trkpt lat="46.77152" lon="-2.04905">
        <ele>50.738354</ele>
        <time>2017-07-27T13:15:00Z</time>
      </trkpt>
      <trkpt lat="46.77146" lon="-2.04895">
        <ele>50.663773</ele>
        <time>2017-07-27T13:15:02Z</time>
      </trkpt>
      <trkpt lat="46.7714" lon="-2.04882">
        <ele>50.49949</ele>
        <time>2017-07-27T13:15:05Z</time>
      </trkpt>
      <trkpt lat="46.77134" lon="-2.0487">
        <ele>50.386257</ele>
        <time>2017-07-27T13:15:09Z</time>
      </trkpt>
      <trkpt lat="46.77139" lon="-2.04859">
        <ele>50.29484</ele>
        <time>2017-07-27T13:15:20Z</time>
      </trkpt>
      <trkpt lat="46.7714" lon="-2.04857">
        <ele>50.385933</ele>
        <time>2017-07-27T13:15:21Z</time>
      </trkpt>
      <trkpt lat="46.7714" lon="-2.04857">
        <ele>50.385933</ele>
        <time>2017-07-27T13:15:21Z</time>
      </trkpt>
      <trkpt lat="46.77169" lon="-2.04842">
        <ele>51.07442</ele>
        <time>2017-07-27T13:15:30Z</time>
      </trkpt>
      <trkpt lat="46.7718" lon="-2.04843">
        <ele>50.919712</ele>
        <time>2017-07-27T13:15:34Z</time>
      </trkpt>
      <trkpt lat="46.77189" lon="-2.04849">
        <ele>50.493027</ele>
        <time>2017-07-27T13:15:37Z</time>
      </trkpt>
      <trkpt lat="46.77193" lon="-2.04861">
        <ele>50.172337</ele>
        <time>2017-07-27T13:15:40Z</time>
      </trkpt>
      <trkpt lat="46.77196" lon="-2.04874">
        <ele>49.517815</ele>
        <time>2017-07-27T13:15:43Z</time>
      </trkpt>
      <trkpt lat="46.772" lon="-2.04887">
        <ele>48.378647</ele>
        <time>2017-07-27T13:15:46Z</time>
      </trkpt>
      <trkpt lat="46.77201" lon="-2.049">
        <ele>47.949947</ele>
        <time>2017-07-27T13:15:48Z</time>
      </trkpt>
      <trkpt lat="46.77202" lon="-2.04915">
        <ele>48.017323</ele>
        <time>2017-07-27T13:15:51Z</time>
      </trkpt>
      <trkpt lat="46.77208" lon="-2.04927">
        <ele>48.521664</ele>
        <time>2017-07-27T13:15:59Z</time>
      </trkpt>
      <trkpt lat="46.77217" lon="-2.0493">
        <ele>48.485535</ele>
        <time>2017-07-27T13:16:03Z</time>
      </trkpt>
      <trkpt lat="46.77228" lon="-2.04938">
        <ele>47.672672</ele>
        <time>2017-07-27T13:16:07Z</time>
      </trkpt>
      <trkpt lat="46.77235" lon="-2.0495">
        <ele>47.657936</ele>
        <time>2017-07-27T13:16:10Z</time>
      </trkpt>
      <trkpt lat="46.77243" lon="-2.04963">
        <ele>48.12848</ele>
        <time>2017-07-27T13:16:13Z</time>
      </trkpt>
      <trkpt lat="46.77252" lon="-2.04975">
        <ele>48.70717</ele>
        <time>2017-07-27T13:16:16Z</time>
      </trkpt>
      <trkpt lat="46.77262" lon="-2.04986">
        <ele>48.93787</ele>
        <time>2017-07-27T13:16:19Z</time>
      </trkpt>
      <trkpt lat="46.77269" lon="-2.04994">
        <ele>49.23566</ele>
        <time>2017-07-27T13:16:25Z</time>
      </trkpt>
      <trkpt lat="46.77277" lon="-2.05004">
        <ele>49.21682</ele>
        <time>2017-07-27T13:16:29Z</time>
      </trkpt>
      <trkpt lat="46.77284" lon="-2.05015">
        <ele>48.797047</ele>
        <time>2017-07-27T13:16:32Z</time>
      </trkpt>
      <trkpt lat="46.77292" lon="-2.05023">
        <ele>47.450466</ele>
        <time>2017-07-27T13:16:35Z</time>
      </trkpt>
      <trkpt lat="46.77301" lon="-2.05036">
        <ele>47.295795</ele>
        <time>2017-07-27T13:16:39Z</time>
      </trkpt>
      <trkpt lat="46.77309" lon="-2.05047">
        <ele>47.086796</ele>
        <time>2017-07-27T13:16:42Z</time>
      </trkpt>
      <trkpt lat="46.77318" lon="-2.05057">
        <ele>46.97826</ele>
        <time>2017-07-27T13:16:45Z</time>
      </trkpt>
      <trkpt lat="46.77327" lon="-2.05065">
        <ele>46.710754</ele>
        <time>2017-07-27T13:16:48Z</time>
      </trkpt>
      <trkpt lat="46.77337" lon="-2.05075">
        <ele>44.36903</ele>
        <time>2017-07-27T13:16:51Z</time>
      </trkpt>
      <trkpt lat="46.77345" lon="-2.05085">
        <ele>42.489697</ele>
        <time>2017-07-27T13:16:54Z</time>
      </trkpt>
      <trkpt lat="46.77353" lon="-2.05093">
        <ele>41.306503</ele>
        <time>2017-07-27T13:16:57Z</time>
      </trkpt>
      <trkpt lat="46.7736" lon="-2.05103">
        <ele>41.22631</ele>
        <time>2017-07-27T13:17:00Z</time>
      </trkpt>
      <trkpt lat="46.77367" lon="-2.05112">
        <ele>41.70807</ele>
        <time>2017-07-27T13:17:07Z</time>
      </trkpt>
      <trkpt lat="46.77371" lon="-2.05125">
        <ele>42.191967</ele>
        <time>2017-07-27T13:17:12Z</time>
      </trkpt>
      <trkpt lat="46.77372" lon="-2.05129">
        <ele>42.571568</ele>
        <time>2017-07-27T13:17:19Z</time>
      </trkpt>
      <trkpt lat="46.77372" lon="-2.05129">
        <ele>42.571568</ele>
        <time>2017-07-27T13:17:19Z</time>
      </trkpt>
      <trkpt lat="46.77395" lon="-2.05149">
        <ele>42.85782</ele>
        <time>2017-07-27T13:17:29Z</time>
      </trkpt>
      <trkpt lat="46.77406" lon="-2.05155">
        <ele>41.426174</ele>
        <time>2017-07-27T13:17:32Z</time>
      </trkpt>
      <trkpt lat="46.77416" lon="-2.05166">
        <ele>41.57566</ele>
        <time>2017-07-27T13:17:36Z</time>
      </trkpt>
      <trkpt lat="46.77424" lon="-2.05179">
        <ele>41.657406</ele>
        <time>2017-07-27T13:17:40Z</time>
      </trkpt>
      <trkpt lat="46.77431" lon="-2.0519">
        <ele>41.784504</ele>
        <time>2017-07-27T13:17:43Z</time>
      </trkpt>
      <trkpt lat="46.77439" lon="-2.05205">
        <ele>41.79386</ele>
        <time>2017-07-27T13:17:46Z</time>
      </trkpt>
      <trkpt lat="46.77445" lon="-2.05215">
        <ele>41.960415</ele>
        <time>2017-07-27T13:17:49Z</time>
      </trkpt>
      <trkpt lat="46.77453" lon="-2.05227">
        <ele>42.44902</ele>
        <time>2017-07-27T13:17:54Z</time>
      </trkpt>
      <trkpt lat="46.77457" lon="-2.05239">
        <ele>42.901894</ele>
        <time>2017-07-27T13:17:57Z</time>
      </trkpt>
      <trkpt lat="46.77464" lon="-2.05248">
        <ele>43.274418</ele>
        <time>2017-07-27T13:18:00Z</time>
      </trkpt>
      <trkpt lat="46.77473" lon="-2.05261">
        <ele>43.498665</ele>
        <time>2017-07-27T13:18:04Z</time>
      </trkpt>
      <trkpt lat="46.77482" lon="-2.05271">
        <ele>43.741745</ele>
        <time>2017-07-27T13:18:07Z</time>
      </trkpt>
      <trkpt lat="46.7749" lon="-2.05282">
        <ele>44.13359</ele>
        <time>2017-07-27T13:18:10Z</time>
      </trkpt>
      <trkpt lat="46.77498" lon="-2.05288">
        <ele>44.552982</ele>
        <time>2017-07-27T13:18:13Z</time>
      </trkpt>
      <trkpt lat="46.77507" lon="-2.05294">
        <ele>44.662823</ele>
        <time>2017-07-27T13:18:16Z</time>
      </trkpt>
      <trkpt lat="46.77517" lon="-2.05303">
        <ele>46.602768</ele>
        <time>2017-07-27T13:18:19Z</time>
      </trkpt>
      <trkpt lat="46.77524" lon="-2.05313">
        <ele>46.470978</ele>
        <time>2017-07-27T13:18:22Z</time>
      </trkpt>
      <trkpt lat="46.77533" lon="-2.05322">
        <ele>45.98849</ele>
        <time>2017-07-27T13:18:25Z</time>
      </trkpt>
      <trkpt lat="46.77538" lon="-2.05332">
        <ele>45.779922</ele>
        <time>2017-07-27T13:18:28Z</time>
      </trkpt>
      <trkpt lat="46.77544" lon="-2.05344">
        <ele>45.633522</ele>
        <time>2017-07-27T13:18:31Z</time>
      </trkpt>
      <trkpt lat="46.7755" lon="-2.05362">
        <ele>45.745808</ele>
        <time>2017-07-27T13:18:34Z</time>
      </trkpt>
      <trkpt lat="46.77557" lon="-2.05372">
        <ele>45.776928</ele>
        <time>2017-07-27T13:18:37Z</time>
      </trkpt>
      <trkpt lat="46.77565" lon="-2.05384">
        <ele>45.030006</ele>
        <time>2017-07-27T13:18:40Z</time>
      </trkpt>
      <trkpt lat="46.77573" lon="-2.05392">
        <ele>44.97699</ele>
        <time>2017-07-27T13:18:43Z</time>
      </trkpt>
      <trkpt lat="46.77581" lon="-2.05402">
        <ele>44.823513</ele>
        <time>2017-07-27T13:18:46Z</time>
      </trkpt>
      <trkpt lat="46.77588" lon="-2.05411">
        <ele>44.872177</ele>
        <time>2017-07-27T13:18:49Z</time>
      </trkpt>
      <trkpt lat="46.77591" lon="-2.05414">
        <ele>44.655586</ele>
        <time>2017-07-27T13:18:57Z</time>
      </trkpt>
      <trkpt lat="46.77591" lon="-2.05414">
        <ele>44.655586</ele>
        <time>2017-07-27T13:18:57Z</time>
      </trkpt>
      <trkpt lat="46.77608" lon="-2.05432">
        <ele>44.19305</ele>
        <time>2017-07-27T13:19:08Z</time>
      </trkpt>
      <trkpt lat="46.77616" lon="-2.0544">
        <ele>44.213028</ele>
        <time>2017-07-27T13:19:11Z</time>
      </trkpt>
      <trkpt lat="46.77623" lon="-2.05453">
        <ele>44.257347</ele>
        <time>2017-07-27T13:19:15Z</time>
      </trkpt>
      <trkpt lat="46.7763" lon="-2.05467">
        <ele>44.41332</ele>
        <time>2017-07-27T13:19:19Z</time>
      </trkpt>
      <trkpt lat="46.77635" lon="-2.05478">
        <ele>44.457485</ele>
        <time>2017-07-27T13:19:22Z</time>
      </trkpt>
      <trkpt lat="46.7764" lon="-2.05491">
        <ele>44.54755</ele>
        <time>2017-07-27T13:19:25Z</time>
      </trkpt>
      <trkpt lat="46.77648" lon="-2.05507">
        <ele>44.597984</ele>
        <time>2017-07-27T13:19:28Z</time>
      </trkpt>
      <trkpt lat="46.77654" lon="-2.05517">
        <ele>44.723164</ele>
        <time>2017-07-27T13:19:31Z</time>
      </trkpt>
      <trkpt lat="46.7766" lon="-2.05529">
        <ele>44.745872</ele>
        <time>2017-07-27T13:19:34Z</time>
      </trkpt>
      <trkpt lat="46.77667" lon="-2.05541">
        <ele>44.79919</ele>
        <time>2017-07-27T13:19:37Z</time>
      </trkpt>
      <trkpt lat="46.77672" lon="-2.05552">
        <ele>44.9155</ele>
        <time>2017-07-27T13:19:40Z</time>
      </trkpt>
      <trkpt lat="46.7768" lon="-2.05564">
        <ele>45.13268</ele>
        <time>2017-07-27T13:19:44Z</time>
      </trkpt>
      <trkpt lat="46.77688" lon="-2.05572">
        <ele>45.03622</ele>
        <time>2017-07-27T13:19:49Z</time>
      </trkpt>
      <trkpt lat="46.77696" lon="-2.05577">
        <ele>45.19092</ele>
        <time>2017-07-27T13:19:53Z</time>
      </trkpt>
      <trkpt lat="46.77707" lon="-2.05583">
        <ele>44.98588</ele>
        <time>2017-07-27T13:19:57Z</time>
      </trkpt>
      <trkpt lat="46.77717" lon="-2.05591">
        <ele>45.07608</ele>
        <time>2017-07-27T13:20:00Z</time>
      </trkpt>
      <trkpt lat="46.77725" lon="-2.05602">
        <ele>44.741955</ele>
        <time>2017-07-27T13:20:03Z</time>
      </trkpt>
      <trkpt lat="46.77732" lon="-2.05612">
        <ele>44.690777</ele>
        <time>2017-07-27T13:20:06Z</time>
      </trkpt>
      <trkpt lat="46.77742" lon="-2.05619">
        <ele>44.61045</ele>
        <time>2017-07-27T13:20:09Z</time>
      </trkpt>
      <trkpt lat="46.77749" lon="-2.05631">
        <ele>44.458195</ele>
        <time>2017-07-27T13:20:12Z</time>
      </trkpt>
      <trkpt lat="46.77758" lon="-2.05645">
        <ele>44.259525</ele>
        <time>2017-07-27T13:20:15Z</time>
      </trkpt>
      <trkpt lat="46.77763" lon="-2.05659">
        <ele>44.449036</ele>
        <time>2017-07-27T13:20:18Z</time>
      </trkpt>
      <trkpt lat="46.77767" lon="-2.0567">
        <ele>44.509518</ele>
        <time>2017-07-27T13:20:20Z</time>
      </trkpt>
      <trkpt lat="46.77775" lon="-2.05683">
        <ele>44.617344</ele>
        <time>2017-07-27T13:20:24Z</time>
      </trkpt>
      <trkpt lat="46.77781" lon="-2.05695">
        <ele>44.819477</ele>
        <time>2017-07-27T13:20:27Z</time>
      </trkpt>
      <trkpt lat="46.77785" lon="-2.05707">
        <ele>44.974728</ele>
        <time>2017-07-27T13:20:29Z</time>
      </trkpt>
      <trkpt lat="46.7779" lon="-2.05718">
        <ele>45.164955</ele>
        <time>2017-07-27T13:20:32Z</time>
      </trkpt>
      <trkpt lat="46.77797" lon="-2.05729">
        <ele>45.481422</ele>
        <time>2017-07-27T13:20:35Z</time>
      </trkpt>
      <trkpt lat="46.77804" lon="-2.05736">
        <ele>45.704395</ele>
        <time>2017-07-27T13:20:45Z</time>
      </trkpt>
      <trkpt lat="46.77804" lon="-2.05736">
        <ele>45.704395</ele>
        <time>2017-07-27T13:20:45Z</time>
      </trkpt>
      <trkpt lat="46.77834" lon="-2.05697">
        <ele>48.348183</ele>
        <time>2017-07-27T13:21:16Z</time>
      </trkpt>
      <trkpt lat="46.7784" lon="-2.05685">
        <ele>48.37369</ele>
        <time>2017-07-27T13:21:18Z</time>
      </trkpt>
      <trkpt lat="46.77844" lon="-2.0567">
        <ele>48.239895</ele>
        <time>2017-07-27T13:21:21Z</time>
      </trkpt>
      <trkpt lat="46.77851" lon="-2.05654">
        <ele>48.383892</ele>
        <time>2017-07-27T13:21:24Z</time>
      </trkpt>
      <trkpt lat="46.77856" lon="-2.05639">
        <ele>48.293335</ele>
        <time>2017-07-27T13:21:27Z</time>
      </trkpt>
      <trkpt lat="46.77861" lon="-2.05622">
        <ele>49.143654</ele>
        <time>2017-07-27T13:21:30Z</time>
      </trkpt>
      <trkpt lat="46.77863" lon="-2.05608">
        <ele>50.605343</ele>
        <time>2017-07-27T13:21:34Z</time>
      </trkpt>
      <trkpt lat="46.7787" lon="-2.05596">
        <ele>49.846516</ele>
        <time>2017-07-27T13:21:37Z</time>
      </trkpt>
      <trkpt lat="46.77875" lon="-2.05584">
        <ele>50.271904</ele>
        <time>2017-07-27T13:21:39Z</time>
      </trkpt>
      <trkpt lat="46.77877" lon="-2.0557">
        <ele>50.389248</ele>
        <time>2017-07-27T13:21:42Z</time>
      </trkpt>
      <trkpt lat="46.77879" lon="-2.05557">
        <ele>50.5478</ele>
        <time>2017-07-27T13:21:45Z</time>
      </trkpt>
      <trkpt lat="46.77881" lon="-2.0554">
        <ele>50.70141</ele>
        <time>2017-07-27T13:21:49Z</time>
      </trkpt>
      <trkpt lat="46.77885" lon="-2.05528">
        <ele>50.621872</ele>
        <time>2017-07-27T13:21:52Z</time>
      </trkpt>
      <trkpt lat="46.7789" lon="-2.05513">
        <ele>50.179222</ele>
        <time>2017-07-27T13:21:56Z</time>
      </trkpt>
      <trkpt lat="46.77894" lon="-2.05499">
        <ele>49.65988</ele>
        <time>2017-07-27T13:21:59Z</time>
      </trkpt>
      <trkpt lat="46.77899" lon="-2.05485">
        <ele>49.24854</ele>
        <time>2017-07-27T13:22:02Z</time>
      </trkpt>
      <trkpt lat="46.77905" lon="-2.05473">
        <ele>48.600056</ele>
        <time>2017-07-27T13:22:07Z</time>
      </trkpt>
      <trkpt lat="46.77914" lon="-2.05472">
        <ele>48.565907</ele>
        <time>2017-07-27T13:22:13Z</time>
      </trkpt>
      <trkpt lat="46.77916" lon="-2.05486">
        <ele>48.229767</ele>
        <time>2017-07-27T13:22:17Z</time>
      </trkpt>
      <trkpt lat="46.77916" lon="-2.05501">
        <ele>47.930202</ele>
        <time>2017-07-27T13:22:20Z</time>
      </trkpt>
      <trkpt lat="46.77917" lon="-2.05517">
        <ele>47.647015</ele>
        <time>2017-07-27T13:22:23Z</time>
      </trkpt>
      <trkpt lat="46.77919" lon="-2.0553">
        <ele>47.52289</ele>
        <time>2017-07-27T13:22:26Z</time>
      </trkpt>
      <trkpt lat="46.77919" lon="-2.05543">
        <ele>47.602306</ele>
        <time>2017-07-27T13:22:28Z</time>
      </trkpt>
      <trkpt lat="46.77924" lon="-2.05558">
        <ele>48.011066</ele>
        <time>2017-07-27T13:22:32Z</time>
      </trkpt>
      <trkpt lat="46.77934" lon="-2.0556">
        <ele>48.366287</ele>
        <time>2017-07-27T13:22:35Z</time>
      </trkpt>
      <trkpt lat="46.77942" lon="-2.05566">
        <ele>48.615055</ele>
        <time>2017-07-27T13:22:38Z</time>
      </trkpt>
      <trkpt lat="46.7795" lon="-2.05573">
        <ele>48.588474</ele>
        <time>2017-07-27T13:22:42Z</time>
      </trkpt>
      <trkpt lat="46.7796" lon="-2.05581">
        <ele>48.780346</ele>
        <time>2017-07-27T13:22:46Z</time>
      </trkpt>
      <trkpt lat="46.77968" lon="-2.05585">
        <ele>48.757713</ele>
        <time>2017-07-27T13:22:49Z</time>
      </trkpt>
      <trkpt lat="46.77979" lon="-2.05595">
        <ele>48.480595</ele>
        <time>2017-07-27T13:22:53Z</time>
      </trkpt>
      <trkpt lat="46.77984" lon="-2.05615">
        <ele>48.022957</ele>
        <time>2017-07-27T13:22:56Z</time>
      </trkpt>
      <trkpt lat="46.77987" lon="-2.05629">
        <ele>47.335873</ele>
        <time>2017-07-27T13:23:00Z</time>
      </trkpt>
      <trkpt lat="46.77996" lon="-2.05634">
        <ele>47.04722</ele>
        <time>2017-07-27T13:23:03Z</time>
      </trkpt>
      <trkpt lat="46.78005" lon="-2.05643">
        <ele>47.120266</ele>
        <time>2017-07-27T13:23:07Z</time>
      </trkpt>
      <trkpt lat="46.7801" lon="-2.05653">
        <ele>47.675236</ele>
        <time>2017-07-27T13:23:10Z</time>
      </trkpt>
      <trkpt lat="46.78017" lon="-2.05667">
        <ele>47.916298</ele>
        <time>2017-07-27T13:23:14Z</time>
      </trkpt>
      <trkpt lat="46.78025" lon="-2.05676">
        <ele>48.50077</ele>
        <time>2017-07-27T13:23:18Z</time>
      </trkpt>
      <trkpt lat="46.78033" lon="-2.05688">
        <ele>48.814823</ele>
        <time>2017-07-27T13:23:21Z</time>
      </trkpt>
      <trkpt lat="46.78039" lon="-2.05707">
        <ele>48.52533</ele>
        <time>2017-07-27T13:23:24Z</time>
      </trkpt>
      <trkpt lat="46.78044" lon="-2.05723">
        <ele>49.260918</ele>
        <time>2017-07-27T13:23:27Z</time>
      </trkpt>
      <trkpt lat="46.78048" lon="-2.05736">
        <ele>50.343277</ele>
        <time>2017-07-27T13:23:29Z</time>
      </trkpt>
      <trkpt lat="46.78055" lon="-2.05752">
        <ele>51.76069</ele>
        <time>2017-07-27T13:23:32Z</time>
      </trkpt>
      <trkpt lat="46.78062" lon="-2.05766">
        <ele>50.102604</ele>
        <time>2017-07-27T13:23:35Z</time>
      </trkpt>
      <trkpt lat="46.78069" lon="-2.05779">
        <ele>49.349064</ele>
        <time>2017-07-27T13:23:38Z</time>
      </trkpt>
      <trkpt lat="46.78072" lon="-2.05796">
        <ele>49.793045</ele>
        <time>2017-07-27T13:23:41Z</time>
      </trkpt>
      <trkpt lat="46.78077" lon="-2.05811">
        <ele>50.697445</ele>
        <time>2017-07-27T13:23:43Z</time>
      </trkpt>
      <trkpt lat="46.78082" lon="-2.05827">
        <ele>51.9167</ele>
        <time>2017-07-27T13:23:46Z</time>
      </trkpt>
      <trkpt lat="46.78084" lon="-2.05842">
        <ele>52.05141</ele>
        <time>2017-07-27T13:23:49Z</time>
      </trkpt>
      <trkpt lat="46.78087" lon="-2.05855">
        <ele>52.218277</ele>
        <time>2017-07-27T13:23:52Z</time>
      </trkpt>
      <trkpt lat="46.78093" lon="-2.05868">
        <ele>52.297447</ele>
        <time>2017-07-27T13:23:56Z</time>
      </trkpt>
      <trkpt lat="46.781" lon="-2.05879">
        <ele>52.19609</ele>
        <time>2017-07-27T13:24:00Z</time>
      </trkpt>
      <trkpt lat="46.78108" lon="-2.05888">
        <ele>52.012154</ele>
        <time>2017-07-27T13:24:03Z</time>
      </trkpt>
      <trkpt lat="46.78114" lon="-2.05898">
        <ele>51.701622</ele>
        <time>2017-07-27T13:24:06Z</time>
      </trkpt>
      <trkpt lat="46.7812" lon="-2.05909">
        <ele>51.40659</ele>
        <time>2017-07-27T13:24:09Z</time>
      </trkpt>
      <trkpt lat="46.78124" lon="-2.05926">
        <ele>50.620914</ele>
        <time>2017-07-27T13:24:13Z</time>
      </trkpt>
      <trkpt lat="46.78128" lon="-2.05944">
        <ele>50.3292</ele>
        <time>2017-07-27T13:24:16Z</time>
      </trkpt>
      <trkpt lat="46.7813" lon="-2.05961">
        <ele>50.280426</ele>
        <time>2017-07-27T13:24:19Z</time>
      </trkpt>
      <trkpt lat="46.78135" lon="-2.05974">
        <ele>50.293556</ele>
        <time>2017-07-27T13:24:23Z</time>
      </trkpt>
      <trkpt lat="46.78141" lon="-2.05987">
        <ele>50.32067</ele>
        <time>2017-07-27T13:24:27Z</time>
      </trkpt>
      <trkpt lat="46.78145" lon="-2.06">
        <ele>51.577343</ele>
        <time>2017-07-27T13:24:30Z</time>
      </trkpt>
      <trkpt lat="46.78151" lon="-2.06011">
        <ele>52.07082</ele>
        <time>2017-07-27T13:24:32Z</time>
      </trkpt>
      <trkpt lat="46.78161" lon="-2.06023">
        <ele>52.19883</ele>
        <time>2017-07-27T13:24:35Z</time>
      </trkpt>
      <trkpt lat="46.7817" lon="-2.06034">
        <ele>51.969814</ele>
        <time>2017-07-27T13:24:38Z</time>
      </trkpt>
      <trkpt lat="46.78179" lon="-2.06045">
        <ele>51.808643</ele>
        <time>2017-07-27T13:24:40Z</time>
      </trkpt>
      <trkpt lat="46.78191" lon="-2.06054">
        <ele>51.635952</ele>
        <time>2017-07-27T13:24:43Z</time>
      </trkpt>
      <trkpt lat="46.78202" lon="-2.06067">
        <ele>50.2509</ele>
        <time>2017-07-27T13:24:46Z</time>
      </trkpt>
      <trkpt lat="46.78208" lon="-2.06077">
        <ele>51.191063</ele>
        <time>2017-07-27T13:24:48Z</time>
      </trkpt>
      <trkpt lat="46.78214" lon="-2.06092">
        <ele>51.18591</ele>
        <time>2017-07-27T13:24:51Z</time>
      </trkpt>
      <trkpt lat="46.7822" lon="-2.06104">
        <ele>51.528805</ele>
        <time>2017-07-27T13:24:54Z</time>
      </trkpt>
      <trkpt lat="46.78223" lon="-2.06119">
        <ele>52.308273</ele>
        <time>2017-07-27T13:24:57Z</time>
      </trkpt>
      <trkpt lat="46.78227" lon="-2.06135">
        <ele>52.81801</ele>
        <time>2017-07-27T13:24:59Z</time>
      </trkpt>
      <trkpt lat="46.78231" lon="-2.06148">
        <ele>52.188717</ele>
        <time>2017-07-27T13:25:02Z</time>
      </trkpt>
      <trkpt lat="46.78238" lon="-2.06159">
        <ele>51.74849</ele>
        <time>2017-07-27T13:25:06Z</time>
      </trkpt>
      <trkpt lat="46.78248" lon="-2.06168">
        <ele>51.759254</ele>
        <time>2017-07-27T13:25:10Z</time>
      </trkpt>
      <trkpt lat="46.78251" lon="-2.0618">
        <ele>51.781597</ele>
        <time>2017-07-27T13:25:14Z</time>
      </trkpt>
      <trkpt lat="46.78257" lon="-2.06192">
        <ele>51.540833</ele>
        <time>2017-07-27T13:25:18Z</time>
      </trkpt>
      <trkpt lat="46.78264" lon="-2.06204">
        <ele>51.103252</ele>
        <time>2017-07-27T13:25:22Z</time>
      </trkpt>
      <trkpt lat="46.78269" lon="-2.06215">
        <ele>51.067608</ele>
        <time>2017-07-27T13:25:25Z</time>
      </trkpt>
      <trkpt lat="46.78275" lon="-2.06227">
        <ele>50.932686</ele>
        <time>2017-07-27T13:25:28Z</time>
      </trkpt>
      <trkpt lat="46.78281" lon="-2.06238">
        <ele>50.13881</ele>
        <time>2017-07-27T13:25:30Z</time>
      </trkpt>
      <trkpt lat="46.78288" lon="-2.06252">
        <ele>50.05874</ele>
        <time>2017-07-27T13:25:33Z</time>
      </trkpt>
      <trkpt lat="46.78291" lon="-2.06266">
        <ele>50.07058</ele>
        <time>2017-07-27T13:25:36Z</time>
      </trkpt>
      <trkpt lat="46.78296" lon="-2.06279">
        <ele>49.773335</ele>
        <time>2017-07-27T13:25:39Z</time>
      </trkpt>
      <trkpt lat="46.78302" lon="-2.06292">
        <ele>49.421677</ele>
        <time>2017-07-27T13:25:42Z</time>
      </trkpt>
      <trkpt lat="46.7831" lon="-2.0631">
        <ele>49.38339</ele>
        <time>2017-07-27T13:25:45Z</time>
      </trkpt>
      <trkpt lat="46.78315" lon="-2.06322">
        <ele>49.3824</ele>
        <time>2017-07-27T13:25:48Z</time>
      </trkpt>
      <trkpt lat="46.78322" lon="-2.06332">
        <ele>49.325687</ele>
        <time>2017-07-27T13:25:51Z</time>
      </trkpt>
      <trkpt lat="46.78329" lon="-2.06344">
        <ele>49.20283</ele>
        <time>2017-07-27T13:25:55Z</time>
      </trkpt>
      <trkpt lat="46.78339" lon="-2.06355">
        <ele>48.891052</ele>
        <time>2017-07-27T13:25:59Z</time>
      </trkpt>
      <trkpt lat="46.78346" lon="-2.06366">
        <ele>48.6265</ele>
        <time>2017-07-27T13:26:02Z</time>
      </trkpt>
      <trkpt lat="46.7835" lon="-2.06378">
        <ele>48.479908</ele>
        <time>2017-07-27T13:26:05Z</time>
      </trkpt>
      <trkpt lat="46.78359" lon="-2.06393">
        <ele>48.11388</ele>
        <time>2017-07-27T13:26:09Z</time>
      </trkpt>
      <trkpt lat="46.78366" lon="-2.06403">
        <ele>48.049503</ele>
        <time>2017-07-27T13:26:12Z</time>
      </trkpt>
      <trkpt lat="46.78374" lon="-2.06413">
        <ele>47.906178</ele>
        <time>2017-07-27T13:26:15Z</time>
      </trkpt>
      <trkpt lat="46.78379" lon="-2.06429">
        <ele>47.106213</ele>
        <time>2017-07-27T13:26:18Z</time>
      </trkpt>
      <trkpt lat="46.78384" lon="-2.0645">
        <ele>46.816513</ele>
        <time>2017-07-27T13:26:22Z</time>
      </trkpt>
      <trkpt lat="46.78389" lon="-2.06462">
        <ele>46.868538</ele>
        <time>2017-07-27T13:26:25Z</time>
      </trkpt>
      <trkpt lat="46.78395" lon="-2.06478">
        <ele>46.852203</ele>
        <time>2017-07-27T13:26:29Z</time>
      </trkpt>
      <trkpt lat="46.784" lon="-2.06491">
        <ele>46.922905</ele>
        <time>2017-07-27T13:26:31Z</time>
      </trkpt>
      <trkpt lat="46.78409" lon="-2.06506">
        <ele>46.714584</ele>
        <time>2017-07-27T13:26:35Z</time>
      </trkpt>
      <trkpt lat="46.78413" lon="-2.06521">
        <ele>46.006275</ele>
        <time>2017-07-27T13:26:39Z</time>
      </trkpt>
      <trkpt lat="46.78412" lon="-2.06536">
        <ele>45.919144</ele>
        <time>2017-07-27T13:26:42Z</time>
      </trkpt>
      <trkpt lat="46.78418" lon="-2.0655">
        <ele>45.911274</ele>
        <time>2017-07-27T13:26:46Z</time>
      </trkpt>
      <trkpt lat="46.78423" lon="-2.06562">
        <ele>45.837326</ele>
        <time>2017-07-27T13:26:49Z</time>
      </trkpt>
      <trkpt lat="46.78429" lon="-2.06578">
        <ele>45.67145</ele>
        <time>2017-07-27T13:26:52Z</time>
      </trkpt>
      <trkpt lat="46.78434" lon="-2.06591">
        <ele>45.42167</ele>
        <time>2017-07-27T13:26:55Z</time>
      </trkpt>
      <trkpt lat="46.78445" lon="-2.06595">
        <ele>44.649277</ele>
        <time>2017-07-27T13:27:04Z</time>
      </trkpt>
      <trkpt lat="46.78457" lon="-2.06584">
        <ele>44.681793</ele>
        <time>2017-07-27T13:27:07Z</time>
      </trkpt>
      <trkpt lat="46.78467" lon="-2.06585">
        <ele>44.62831</ele>
        <time>2017-07-27T13:27:09Z</time>
      </trkpt>
      <trkpt lat="46.78475" lon="-2.06594">
        <ele>45.017414</ele>
        <time>2017-07-27T13:27:12Z</time>
      </trkpt>
      <trkpt lat="46.78477" lon="-2.06607">
        <ele>45.450344</ele>
        <time>2017-07-27T13:27:15Z</time>
      </trkpt>
      <trkpt lat="46.78478" lon="-2.06621">
        <ele>46.032646</ele>
        <time>2017-07-27T13:27:19Z</time>
      </trkpt>
      <trkpt lat="46.7848" lon="-2.06636">
        <ele>46.85852</ele>
        <time>2017-07-27T13:27:24Z</time>
      </trkpt>
      <trkpt lat="46.78483" lon="-2.06652">
        <ele>47.05637</ele>
        <time>2017-07-27T13:27:30Z</time>
      </trkpt>
      <trkpt lat="46.78487" lon="-2.06667">
        <ele>47.29279</ele>
        <time>2017-07-27T13:27:33Z</time>
      </trkpt>
      <trkpt lat="46.78491" lon="-2.06683">
        <ele>48.15141</ele>
        <time>2017-07-27T13:27:36Z</time>
      </trkpt>
      <trkpt lat="46.78496" lon="-2.06697">
        <ele>49.007042</ele>
        <time>2017-07-27T13:27:40Z</time>
      </trkpt>
      <trkpt lat="46.78505" lon="-2.06714">
        <ele>49.97591</ele>
        <time>2017-07-27T13:27:45Z</time>
      </trkpt>
      <trkpt lat="46.78512" lon="-2.06725">
        <ele>50.379208</ele>
        <time>2017-07-27T13:27:48Z</time>
      </trkpt>
      <trkpt lat="46.7852" lon="-2.06735">
        <ele>50.78454</ele>
        <time>2017-07-27T13:27:52Z</time>
      </trkpt>
      <trkpt lat="46.7853" lon="-2.06746">
        <ele>50.790962</ele>
        <time>2017-07-27T13:27:57Z</time>
      </trkpt>
      <trkpt lat="46.78539" lon="-2.06752">
        <ele>50.882694</ele>
        <time>2017-07-27T13:27:59Z</time>
      </trkpt>
      <trkpt lat="46.78539" lon="-2.06767">
        <ele>50.98541</ele>
        <time>2017-07-27T13:28:04Z</time>
      </trkpt>
      <trkpt lat="46.7854" lon="-2.06784">
        <ele>51.64661</ele>
        <time>2017-07-27T13:28:08Z</time>
      </trkpt>
      <trkpt lat="46.78543" lon="-2.06797">
        <ele>51.92796</ele>
        <time>2017-07-27T13:28:12Z</time>
      </trkpt>
      <trkpt lat="46.78546" lon="-2.0681">
        <ele>52.02807</ele>
        <time>2017-07-27T13:28:15Z</time>
      </trkpt>
      <trkpt lat="46.7855" lon="-2.06825">
        <ele>51.855103</ele>
        <time>2017-07-27T13:28:19Z</time>
      </trkpt>
      <trkpt lat="46.78554" lon="-2.0684">
        <ele>50.551735</ele>
        <time>2017-07-27T13:28:22Z</time>
      </trkpt>
      <trkpt lat="46.7856" lon="-2.06855">
        <ele>49.05393</ele>
        <time>2017-07-27T13:28:25Z</time>
      </trkpt>
      <trkpt lat="46.78566" lon="-2.06866">
        <ele>49.082355</ele>
        <time>2017-07-27T13:28:27Z</time>
      </trkpt>
      <trkpt lat="46.78571" lon="-2.06878">
        <ele>49.567066</ele>
        <time>2017-07-27T13:28:30Z</time>
      </trkpt>
      <trkpt lat="46.78575" lon="-2.06893">
        <ele>47.45703</ele>
        <time>2017-07-27T13:28:33Z</time>
      </trkpt>
      <trkpt lat="46.78581" lon="-2.06905">
        <ele>46.455902</ele>
        <time>2017-07-27T13:28:36Z</time>
      </trkpt>
      <trkpt lat="46.78588" lon="-2.06917">
        <ele>43.646572</ele>
        <time>2017-07-27T13:28:39Z</time>
      </trkpt>
      <trkpt lat="46.78591" lon="-2.06931">
        <ele>43.51932</ele>
        <time>2017-07-27T13:28:42Z</time>
      </trkpt>
      <trkpt lat="46.78594" lon="-2.06947">
        <ele>43.098213</ele>
        <time>2017-07-27T13:28:46Z</time>
      </trkpt>
      <trkpt lat="46.78597" lon="-2.06961">
        <ele>43.025063</ele>
        <time>2017-07-27T13:28:49Z</time>
      </trkpt>
      <trkpt lat="46.78604" lon="-2.06973">
        <ele>43.251556</ele>
        <time>2017-07-27T13:28:51Z</time>
      </trkpt>
      <trkpt lat="46.78612" lon="-2.06983">
        <ele>43.24538</ele>
        <time>2017-07-27T13:28:54Z</time>
      </trkpt>
      <trkpt lat="46.78617" lon="-2.06996">
        <ele>43.182304</ele>
        <time>2017-07-27T13:28:57Z</time>
      </trkpt>
      <trkpt lat="46.78624" lon="-2.07007">
        <ele>43.002567</ele>
        <time>2017-07-27T13:29:00Z</time>
      </trkpt>
      <trkpt lat="46.78632" lon="-2.07018">
        <ele>42.15488</ele>
        <time>2017-07-27T13:29:03Z</time>
      </trkpt>
      <trkpt lat="46.78639" lon="-2.07029">
        <ele>42.256603</ele>
        <time>2017-07-27T13:29:06Z</time>
      </trkpt>
      <trkpt lat="46.78648" lon="-2.07038">
        <ele>42.569386</ele>
        <time>2017-07-27T13:29:09Z</time>
      </trkpt>
      <trkpt lat="46.78657" lon="-2.07048">
        <ele>42.671413</ele>
        <time>2017-07-27T13:29:12Z</time>
      </trkpt>
      <trkpt lat="46.78665" lon="-2.07057">
        <ele>42.710255</ele>
        <time>2017-07-27T13:29:15Z</time>
      </trkpt>
      <trkpt lat="46.78673" lon="-2.07066">
        <ele>42.705593</ele>
        <time>2017-07-27T13:29:18Z</time>
      </trkpt>
      <trkpt lat="46.78681" lon="-2.07076">
        <ele>43.00166</ele>
        <time>2017-07-27T13:29:21Z</time>
      </trkpt>
      <trkpt lat="46.78688" lon="-2.07088">
        <ele>44.757347</ele>
        <time>2017-07-27T13:29:24Z</time>
      </trkpt>
      <trkpt lat="46.78693" lon="-2.07099">
        <ele>44.942238</ele>
        <time>2017-07-27T13:29:27Z</time>
      </trkpt>
      <trkpt lat="46.78701" lon="-2.0711">
        <ele>45.074615</ele>
        <time>2017-07-27T13:29:30Z</time>
      </trkpt>
      <trkpt lat="46.78709" lon="-2.07119">
        <ele>45.377045</ele>
        <time>2017-07-27T13:29:33Z</time>
      </trkpt>
      <trkpt lat="46.78716" lon="-2.07128">
        <ele>45.762596</ele>
        <time>2017-07-27T13:29:36Z</time>
      </trkpt>
      <trkpt lat="46.78724" lon="-2.07133">
        <ele>46.46573</ele>
        <time>2017-07-27T13:29:44Z</time>
      </trkpt>
      <trkpt lat="46.78733" lon="-2.07142">
        <ele>46.29375</ele>
        <time>2017-07-27T13:29:48Z</time>
      </trkpt>
      <trkpt lat="46.78741" lon="-2.07154">
        <ele>46.034054</ele>
        <time>2017-07-27T13:29:52Z</time>
      </trkpt>
      <trkpt lat="46.78748" lon="-2.07163">
        <ele>46.1186</ele>
        <time>2017-07-27T13:29:55Z</time>
      </trkpt>
      <trkpt lat="46.78755" lon="-2.07172">
        <ele>46.138092</ele>
        <time>2017-07-27T13:29:58Z</time>
      </trkpt>
      <trkpt lat="46.78759" lon="-2.07184">
        <ele>46.06177</ele>
        <time>2017-07-27T13:30:01Z</time>
      </trkpt>
      <trkpt lat="46.78766" lon="-2.07198">
        <ele>46.34331</ele>
        <time>2017-07-27T13:30:05Z</time>
      </trkpt>
      <trkpt lat="46.78773" lon="-2.07206">
        <ele>46.485214</ele>
        <time>2017-07-27T13:30:07Z</time>
      </trkpt>
      <trkpt lat="46.78779" lon="-2.07216">
        <ele>46.748207</ele>
        <time>2017-07-27T13:30:10Z</time>
      </trkpt>
      <trkpt lat="46.78785" lon="-2.07225">
        <ele>46.74839</ele>
        <time>2017-07-27T13:30:13Z</time>
      </trkpt>
      <trkpt lat="46.78795" lon="-2.07234">
        <ele>48.124924</ele>
        <time>2017-07-27T13:30:16Z</time>
      </trkpt>
      <trkpt lat="46.78801" lon="-2.07244">
        <ele>48.92204</ele>
        <time>2017-07-27T13:30:19Z</time>
      </trkpt>
      <trkpt lat="46.78807" lon="-2.0726">
        <ele>48.816322</ele>
        <time>2017-07-27T13:30:23Z</time>
      </trkpt>
      <trkpt lat="46.78815" lon="-2.07269">
        <ele>48.553642</ele>
        <time>2017-07-27T13:30:26Z</time>
      </trkpt>
      <trkpt lat="46.78819" lon="-2.07282">
        <ele>48.27293</ele>
        <time>2017-07-27T13:30:29Z</time>
      </trkpt>
      <trkpt lat="46.78824" lon="-2.07296">
        <ele>48.111702</ele>
        <time>2017-07-27T13:30:32Z</time>
      </trkpt>
      <trkpt lat="46.78828" lon="-2.07311">
        <ele>47.949066</ele>
        <time>2017-07-27T13:30:36Z</time>
      </trkpt>
      <trkpt lat="46.78833" lon="-2.07326">
        <ele>47.9298</ele>
        <time>2017-07-27T13:30:40Z</time>
      </trkpt>
      <trkpt lat="46.78837" lon="-2.07341">
        <ele>48.22668</ele>
        <time>2017-07-27T13:30:43Z</time>
      </trkpt>
      <trkpt lat="46.78842" lon="-2.07354">
        <ele>49.09973</ele>
        <time>2017-07-27T13:30:46Z</time>
      </trkpt>
      <trkpt lat="46.78849" lon="-2.07368">
        <ele>50.570015</ele>
        <time>2017-07-27T13:30:49Z</time>
      </trkpt>
      <trkpt lat="46.78857" lon="-2.07382">
        <ele>50.55798</ele>
        <time>2017-07-27T13:30:53Z</time>
      </trkpt>
      <trkpt lat="46.78864" lon="-2.07395">
        <ele>50.825787</ele>
        <time>2017-07-27T13:31:01Z</time>
      </trkpt>
      <trkpt lat="46.78868" lon="-2.07407">
        <ele>51.595673</ele>
        <time>2017-07-27T13:31:05Z</time>
      </trkpt>
      <trkpt lat="46.78875" lon="-2.07419">
        <ele>53.972214</ele>
        <time>2017-07-27T13:31:09Z</time>
      </trkpt>
      <trkpt lat="46.78882" lon="-2.07431">
        <ele>54.276573</ele>
        <time>2017-07-27T13:31:12Z</time>
      </trkpt>
      <trkpt lat="46.7889" lon="-2.07445">
        <ele>55.454247</ele>
        <time>2017-07-27T13:31:17Z</time>
      </trkpt>
      <trkpt lat="46.78894" lon="-2.07458">
        <ele>56.03485</ele>
        <time>2017-07-27T13:31:20Z</time>
      </trkpt>
      <trkpt lat="46.78898" lon="-2.07471">
        <ele>55.95332</ele>
        <time>2017-07-27T13:31:23Z</time>
      </trkpt>
      <trkpt lat="46.78902" lon="-2.07483">
        <ele>55.66258</ele>
        <time>2017-07-27T13:31:26Z</time>
      </trkpt>
      <trkpt lat="46.78911" lon="-2.07493">
        <ele>55.33061</ele>
        <time>2017-07-27T13:31:29Z</time>
      </trkpt>
      <trkpt lat="46.7892" lon="-2.07498">
        <ele>55.11952</ele>
        <time>2017-07-27T13:31:32Z</time>
      </trkpt>
      <trkpt lat="46.78932" lon="-2.07501">
        <ele>55.02746</ele>
        <time>2017-07-27T13:31:35Z</time>
      </trkpt>
      <trkpt lat="46.78933" lon="-2.07514">
        <ele>55.88396</ele>
        <time>2017-07-27T13:31:40Z</time>
      </trkpt>
      <trkpt lat="46.78923" lon="-2.07522">
        <ele>56.344036</ele>
        <time>2017-07-27T13:31:43Z</time>
      </trkpt>
      <trkpt lat="46.78916" lon="-2.07532">
        <ele>55.323513</ele>
        <time>2017-07-27T13:31:46Z</time>
      </trkpt>
      <trkpt lat="46.78914" lon="-2.07545">
        <ele>54.92144</ele>
        <time>2017-07-27T13:31:49Z</time>
      </trkpt>
      <trkpt lat="46.78912" lon="-2.07559">
        <ele>54.432384</ele>
        <time>2017-07-27T13:31:52Z</time>
      </trkpt>
      <trkpt lat="46.7891" lon="-2.07573">
        <ele>53.770073</ele>
        <time>2017-07-27T13:31:55Z</time>
      </trkpt>
      <trkpt lat="46.78905" lon="-2.07589">
        <ele>53.07382</ele>
        <time>2017-07-27T13:31:59Z</time>
      </trkpt>
      <trkpt lat="46.7888" lon="-2.07627">
        <ele>48.6214</ele>
        <time>2017-07-27T13:32:12Z</time>
      </trkpt>
      <trkpt lat="46.78864" lon="-2.07646">
        <ele>48.347073</ele>
        <time>2017-07-27T13:32:17Z</time>
      </trkpt>
      <trkpt lat="46.7887" lon="-2.07672">
        <ele>48.663445</ele>
        <time>2017-07-27T13:32:23Z</time>
      </trkpt>
      <trkpt lat="46.78877" lon="-2.07686">
        <ele>48.796635</ele>
        <time>2017-07-27T13:32:24Z</time>
      </trkpt>
      <trkpt lat="46.78879" lon="-2.07699">
        <ele>49.372654</ele>
        <time>2017-07-27T13:32:27Z</time>
      </trkpt>
      <trkpt lat="46.78881" lon="-2.07719">
        <ele>49.991863</ele>
        <time>2017-07-27T13:32:30Z</time>
      </trkpt>
      <trkpt lat="46.78882" lon="-2.07735">
        <ele>50.324245</ele>
        <time>2017-07-27T13:32:43Z</time>
      </trkpt>
      <trkpt lat="46.78886" lon="-2.07771">
        <ele>54.077988</ele>
        <time>2017-07-27T13:32:47Z</time>
      </trkpt>
      <trkpt lat="46.78892" lon="-2.07785">
        <ele>54.02552</ele>
        <time>2017-07-27T13:32:48Z</time>
      </trkpt>
      <trkpt lat="46.78899" lon="-2.07816">
        <ele>53.14998</ele>
        <time>2017-07-27T13:33:06Z</time>
      </trkpt>
      <trkpt lat="46.78899" lon="-2.07874">
        <ele>51.03679</ele>
        <time>2017-07-27T13:33:22Z</time>
      </trkpt>
      <trkpt lat="46.78855" lon="-2.07957">
        <ele>50.657284</ele>
        <time>2017-07-27T13:33:52Z</time>
      </trkpt>
      <trkpt lat="46.78846" lon="-2.08027">
        <ele>50.700714</ele>
        <time>2017-07-27T13:33:58Z</time>
      </trkpt>
      <trkpt lat="46.78849" lon="-2.08075">
        <ele>51.095676</ele>
        <time>2017-07-27T13:34:17Z</time>
      </trkpt>
      <trkpt lat="46.78886" lon="-2.08129">
        <ele>51.039455</ele>
        <time>2017-07-27T13:34:34Z</time>
      </trkpt>
      <trkpt lat="46.78894" lon="-2.08138">
        <ele>50.11765</ele>
        <time>2017-07-27T13:34:37Z</time>
      </trkpt>
      <trkpt lat="46.78882" lon="-2.08158">
        <ele>48.674812</ele>
        <time>2017-07-27T13:34:45Z</time>
      </trkpt>
      <trkpt lat="46.78875" lon="-2.08172">
        <ele>48.300755</ele>
        <time>2017-07-27T13:34:50Z</time>
      </trkpt>
      <trkpt lat="46.78874" lon="-2.08197">
        <ele>48.36299</ele>
        <time>2017-07-27T13:34:56Z</time>
      </trkpt>
      <trkpt lat="46.78865" lon="-2.08208">
        <ele>48.49195</ele>
        <time>2017-07-27T13:35:16Z</time>
      </trkpt>
      <trkpt lat="46.78857" lon="-2.08223">
        <ele>51.44856</ele>
        <time>2017-07-27T13:35:35Z</time>
      </trkpt>
      <trkpt lat="46.78857" lon="-2.08229">
        <ele>52.492275</ele>
        <time>2017-07-27T13:35:51Z</time>
      </trkpt>
      <trkpt lat="46.78857" lon="-2.08229">
        <ele>52.492275</ele>
        <time>2017-07-27T13:35:51Z</time>
      </trkpt>
    </trkseg>
  </trk>
</gpx>